Wetterdaten: Samstag, 11.07.2015
Datum Zeit Temp. Aussen +5cm Feuchte Auss BlattFeu 1 Luftdruck Regen Sonnenschein Regendauer Solar Windben
11.07.2015 00:00 18,2 C 15,6 C 63 % 0 lf 1017,9 hPa 0,0 l/m 0 min 0 min 0 W/m 12,6 km/h (3 Bft)
11.07.2015 00:02 18,1 C 15,6 C 63 % 0 lf 1018,0 hPa 0,0 l/m 0 min 0 min 0 W/m 12,6 km/h (3 Bft)
11.07.2015 00:05 18,1 C 15,6 C 64 % 0 lf 1017,9 hPa 0,0 l/m 0 min 0 min 0 W/m 16,7 km/h (3 Bft)
11.07.2015 00:06 18,0 C 15,6 C 64 % 0 lf 1017,9 hPa 0,0 l/m 0 min 0 min 0 W/m 16,7 km/h (3 Bft)
11.07.2015 00:08 18,0 C 15,6 C 64 % 0 lf 1017,8 hPa 0,0 l/m 0 min 0 min 0 W/m 12,6 km/h (3 Bft)
11.07.2015 00:10 17,9 C 15,6 C 64 % 0 lf 1017,7 hPa 0,0 l/m 0 min 0 min 0 W/m 14,6 km/h (3 Bft)
11.07.2015 00:12 17,9 C 15,6 C 64 % 0 lf 1017,6 hPa 0,0 l/m 0 min 0 min 0 W/m 16,7 km/h (3 Bft)
11.07.2015 00:14 17,9 C 15,6 C 64 % 0 lf 1017,6 hPa 0,0 l/m 0 min 0 min 0 W/m 14,6 km/h (3 Bft)
11.07.2015 00:16 17,8 C 15,6 C 64 % 0 lf 1017,5 hPa 0,0 l/m 0 min 0 min 0 W/m 14,6 km/h (3 Bft)
11.07.2015 00:18 17,8 C 15,6 C 64 % 0 lf 1017,5 hPa 0,0 l/m 0 min 0 min 0 W/m 10,5 km/h (2 Bft)
11.07.2015 00:20 17,8 C 15,6 C 65 % 0 lf 1017,4 hPa 0,0 l/m 0 min 0 min 0 W/m 14,6 km/h (3 Bft)
11.07.2015 00:22 17,7 C 15,6 C 65 % 0 lf 1017,4 hPa 0,0 l/m 0 min 0 min 0 W/m 12,6 km/h (3 Bft)
11.07.2015 00:24 17,7 C 15,6 C 65 % 0 lf 1017,4 hPa 0,0 l/m 0 min 0 min 0 W/m 16,7 km/h (3 Bft)
11.07.2015 00:26 17,7 C 15,6 C 65 % 0 lf 1017,4 hPa 0,0 l/m 0 min 0 min 0 W/m 6,3 km/h (2 Bft)
11.07.2015 00:28 17,7 C 15,6 C 65 % 0 lf 1017,4 hPa 0,0 l/m 0 min 0 min 0 W/m 14,6 km/h (3 Bft)
11.07.2015 00:30 17,7 C 15,6 C 65 % 0 lf 1017,3 hPa 0,0 l/m 0 min 0 min 0 W/m 12,6 km/h (3 Bft)
11.07.2015 00:32 17,6 C 15,6 C 65 % 0 lf 1017,4 hPa 0,0 l/m 0 min 0 min 0 W/m 14,6 km/h (3 Bft)
11.07.2015 00:34 17,6 C 15,6 C 65 % 0 lf 1017,3 hPa 0,0 l/m 0 min 0 min 0 W/m 12,6 km/h (3 Bft)
11.07.2015 00:36 17,6 C 15,6 C 66 % 0 lf 1017,4 hPa 0,0 l/m 0 min 0 min 0 W/m 14,6 km/h (3 Bft)
11.07.2015 00:38 17,5 C 15,6 C 66 % 0 lf 1017,4 hPa 0,0 l/m 0 min 0 min 0 W/m 12,6 km/h (3 Bft)
11.07.2015 00:40 17,5 C 15,6 C 66 % 0 lf 1017,4 hPa 0,0 l/m 0 min 0 min 0 W/m 12,6 km/h (3 Bft)
11.07.2015 00:42 17,4 C 15,6 C 66 % 0 lf 1017,4 hPa 0,0 l/m 0 min 0 min 0 W/m 12,6 km/h (3 Bft)
11.07.2015 00:44 17,4 C 15,6 C 66 % 0 lf 1017,4 hPa 0,0 l/m 0 min 0 min 0 W/m 10,5 km/h (2 Bft)
11.07.2015 00:46 17,4 C 15,6 C 66 % 0 lf 1017,4 hPa 0,0 l/m 0 min 0 min 0 W/m 10,5 km/h (2 Bft)
11.07.2015 00:48 17,4 C 15,6 C 66 % 0 lf 1017,4 hPa 0,0 l/m 0 min 0 min 0 W/m 14,6 km/h (3 Bft)
11.07.2015 00:50 17,4 C 15,6 C 66 % 0 lf 1017,3 hPa 0,0 l/m 0 min 0 min 0 W/m 14,6 km/h (3 Bft)
11.07.2015 00:52 17,4 C 15,0 C 66 % 0 lf 1017,4 hPa 0,0 l/m 0 min 0 min 0 W/m 12,6 km/h (3 Bft)
11.07.2015 00:54 17,3 C 15,0 C 66 % 0 lf 1017,4 hPa 0,0 l/m 0 min 0 min 0 W/m 14,6 km/h (3 Bft)
11.07.2015 00:56 17,3 C 15,0 C 66 % 0 lf 1017,4 hPa 0,0 l/m 0 min 0 min 0 W/m 10,5 km/h (2 Bft)
11.07.2015 00:58 17,3 C 15,0 C 66 % 0 lf 1017,3 hPa 0,0 l/m 0 min 0 min 0 W/m 6,3 km/h (2 Bft)
11.07.2015 01:00 17,3 C 15,0 C 66 % 0 lf 1017,3 hPa 0,0 l/m 0 min 0 min 0 W/m 4,2 km/h (1 Bft)
11.07.2015 01:02 17,3 C 15,0 C 66 % 0 lf 1017,3 hPa 0,0 l/m 0 min 0 min 0 W/m 12,6 km/h (3 Bft)
11.07.2015 01:04 17,2 C 15,0 C 67 % 0 lf 1017,2 hPa 0,0 l/m 0 min 0 min 0 W/m 6,3 km/h (2 Bft)
11.07.2015 01:06 17,2 C 14,4 C 67 % 0 lf 1017,3 hPa 0,0 l/m 0 min 0 min 0 W/m 12,6 km/h (3 Bft)
11.07.2015 01:08 17,2 C 14,4 C 67 % 0 lf 1017,3 hPa 0,0 l/m 0 min 0 min 0 W/m 6,3 km/h (2 Bft)
11.07.2015 01:10 17,1 C 14,4 C 67 % 0 lf 1017,3 hPa 0,0 l/m 0 min 0 min 0 W/m 4,2 km/h (1 Bft)
11.07.2015 01:12 17,1 C 14,4 C 67 % 0 lf 1017,3 hPa 0,0 l/m 0 min 0 min 0 W/m 6,3 km/h (2 Bft)
11.07.2015 01:14 17,1 C 14,4 C 67 % 0 lf 1017,3 hPa 0,0 l/m 0 min 0 min 0 W/m 10,5 km/h (2 Bft)
11.07.2015 01:16 17,1 C 13,9 C 67 % 0 lf 1017,3 hPa 0,0 l/m 0 min 0 min 0 W/m 6,3 km/h (2 Bft)
11.07.2015 01:18 17,0 C 13,9 C 67 % 0 lf 1017,2 hPa 0,0 l/m 0 min 0 min 0 W/m 10,5 km/h (2 Bft)
11.07.2015 01:20 17,0 C 13,9 C 67 % 0 lf 1017,1 hPa 0,0 l/m 0 min 0 min 0 W/m 4,2 km/h (1 Bft)
11.07.2015 01:22 16,9 C 13,9 C 67 % 0 lf 1017,0 hPa 0,0 l/m 0 min 0 min 0 W/m 10,5 km/h (2 Bft)
11.07.2015 01:24 16,9 C 13,9 C 67 % 0 lf 1017,0 hPa 0,0 l/m 0 min 0 min 0 W/m 10,5 km/h (2 Bft)
11.07.2015 01:26 16,9 C 13,9 C 68 % 0 lf 1017,0 hPa 0,0 l/m 0 min 0 min 0 W/m 8,4 km/h (2 Bft)
11.07.2015 01:28 16,8 C 13,9 C 68 % 0 lf 1016,9 hPa 0,0 l/m 0 min 0 min 0 W/m 6,3 km/h (2 Bft)
11.07.2015 01:30 16,8 C 13,9 C 68 % 0 lf 1016,9 hPa 0,0 l/m 0 min 0 min 0 W/m 6,3 km/h (2 Bft)
11.07.2015 01:32 16,8 C 13,9 C 68 % 0 lf 1016,8 hPa 0,0 l/m 0 min 0 min 0 W/m 6,3 km/h (2 Bft)
11.07.2015 01:34 16,7 C 13,9 C 69 % 0 lf 1016,9 hPa 0,0 l/m 0 min 0 min 0 W/m 6,3 km/h (2 Bft)
11.07.2015 01:36 16,7 C 13,9 C 69 % 0 lf 1016,8 hPa 0,0 l/m 0 min 0 min 0 W/m 6,3 km/h (2 Bft)
11.07.2015 01:38 16,6 C 13,3 C 69 % 0 lf 1016,9 hPa 0,0 l/m 0 min 0 min 0 W/m 2,1 km/h (1 Bft)
11.07.2015 01:40 16,6 C 13,3 C 69 % 0 lf 1016,9 hPa 0,0 l/m 0 min 0 min 0 W/m 2,1 km/h (1 Bft)
11.07.2015 01:42 16,6 C 13,3 C 69 % 0 lf 1016,9 hPa 0,0 l/m 0 min 0 min 0 W/m 2,1 km/h (1 Bft)
11.07.2015 01:44 16,5 C 13,3 C 69 % 0 lf 1016,8 hPa 0,0 l/m 0 min 0 min 0 W/m 2,1 km/h (1 Bft)
11.07.2015 01:46 16,4 C 13,3 C 69 % 0 lf 1016,9 hPa 0,0 l/m 0 min 0 min 0 W/m 0,0 km/h (0 Bft)
11.07.2015 01:48 16,4 C 13,3 C 69 % 0 lf 1016,8 hPa 0,0 l/m 0 min 0 min 0 W/m 0,0 km/h (0 Bft)
11.07.2015 01:50 16,3 C 12,8 C 70 % 0 lf 1016,8 hPa 0,0 l/m 0 min 0 min 0 W/m 0,0 km/h (0 Bft)
11.07.2015 01:52 16,3 C 12,8 C 70 % 0 lf 1016,8 hPa 0,0 l/m 0 min 0 min 0 W/m 0,0 km/h (0 Bft)
11.07.2015 01:54 16,2 C 12,8 C 70 % 0 lf 1016,7 hPa 0,0 l/m 0 min 0 min 0 W/m 0,0 km/h (0 Bft)
11.07.2015 01:56 16,2 C 12,8 C 70 % 0 lf 1016,7 hPa 0,0 l/m 0 min 0 min 0 W/m 0,0 km/h (0 Bft)
11.07.2015 01:58 16,2 C 12,8 C 70 % 0 lf 1016,6 hPa 0,0 l/m 0 min 0 min 0 W/m 2,1 km/h (1 Bft)
11.07.2015 02:00 16,1 C 12,8 C 71 % 0 lf 1016,7 hPa 0,0 l/m 0 min 0 min 0 W/m 2,1 km/h (1 Bft)
11.07.2015 02:02 16,1 C 12,8 C 71 % 0 lf 1016,6 hPa 0,0 l/m 0 min 0 min 0 W/m 2,1 km/h (1 Bft)
11.07.2015 02:04 16,0 C 12,8 C 71 % 0 lf 1016,7 hPa 0,0 l/m 0 min 0 min 0 W/m 2,1 km/h (1 Bft)
11.07.2015 02:06 15,9 C 12,8 C 71 % 0 lf 1016,6 hPa 0,0 l/m 0 min 0 min 0 W/m 2,1 km/h (1 Bft)
11.07.2015 02:08 15,9 C 12,8 C 71 % 0 lf 1016,6 hPa 0,0 l/m 0 min 0 min 0 W/m 2,1 km/h (1 Bft)
11.07.2015 02:10 15,8 C 12,2 C 72 % 0 lf 1016,7 hPa 0,0 l/m 0 min 0 min 0 W/m 2,1 km/h (1 Bft)
11.07.2015 02:12 15,8 C 12,2 C 72 % 0 lf 1016,7 hPa 0,0 l/m 0 min 0 min 0 W/m 2,1 km/h (1 Bft)
11.07.2015 02:14 15,7 C 12,2 C 72 % 0 lf 1016,6 hPa 0,0 l/m 0 min 0 min 0 W/m 2,1 km/h (1 Bft)
11.07.2015 02:16 15,7 C 12,2 C 72 % 0 lf 1016,7 hPa 0,0 l/m 0 min 0 min 0 W/m 2,1 km/h (1 Bft)
11.07.2015 02:18 15,6 C 12,2 C 73 % 0 lf 1016,7 hPa 0,0 l/m 0 min 0 min 0 W/m 0,0 km/h (0 Bft)
11.07.2015 02:20 15,5 C 12,2 C 73 % 0 lf 1016,8 hPa 0,0 l/m 0 min 0 min 0 W/m 0,0 km/h (0 Bft)
11.07.2015 02:22 15,4 C 12,2 C 73 % 0 lf 1016,7 hPa 0,0 l/m 0 min 0 min 0 W/m 2,1 km/h (1 Bft)
11.07.2015 02:24 15,4 C 12,2 C 73 % 0 lf 1016,7 hPa 0,0 l/m 0 min 0 min 0 W/m 2,1 km/h (1 Bft)
11.07.2015 02:26 15,3 C 12,2 C 74 % 0 lf 1016,8 hPa 0,0 l/m 0 min 0 min 0 W/m 2,1 km/h (1 Bft)
11.07.2015 02:28 15,3 C 12,2 C 74 % 0 lf 1016,8 hPa 0,0 l/m 0 min 0 min 0 W/m 4,2 km/h (1 Bft)
11.07.2015 02:30 15,2 C 12,2 C 74 % 0 lf 1016,8 hPa 0,0 l/m 0 min 0 min 0 W/m 4,2 km/h (1 Bft)
11.07.2015 02:32 15,2 C 12,2 C 74 % 0 lf 1016,9 hPa 0,0 l/m 0 min 0 min 0 W/m 2,1 km/h (1 Bft)
11.07.2015 02:34 15,1 C 12,2 C 74 % 0 lf 1016,8 hPa 0,0 l/m 0 min 0 min 0 W/m 2,1 km/h (1 Bft)
11.07.2015 02:36 15,1 C 12,2 C 75 % 0 lf 1016,7 hPa 0,0 l/m 0 min 0 min 0 W/m 0,0 km/h (0 Bft)
11.07.2015 02:38 15,1 C 12,2 C 75 % 0 lf 1016,7 hPa 0,0 l/m 0 min 0 min 0 W/m 0,0 km/h (0 Bft)
11.07.2015 02:40 15,0 C 12,2 C 75 % 0 lf 1016,7 hPa 0,0 l/m 0 min 0 min 0 W/m 0,0 km/h (0 Bft)
11.07.2015 02:42 14,9 C 11,7 C 76 % 0 lf 1016,7 hPa 0,0 l/m 0 min 0 min 0 W/m 0,0 km/h (0 Bft)
11.07.2015 02:44 14,9 C 11,7 C 76 % 0 lf 1016,6 hPa 0,0 l/m 0 min 0 min 0 W/m 0,0 km/h (0 Bft)
11.07.2015 02:46 14,8 C 11,7 C 76 % 0 lf 1016,6 hPa 0,0 l/m 0 min 0 min 0 W/m 0,0 km/h (0 Bft)
11.07.2015 02:48 14,8 C 11,7 C 76 % 0 lf 1016,6 hPa 0,0 l/m 0 min 0 min 0 W/m 2,1 km/h (1 Bft)
11.07.2015 02:50 14,7 C 11,7 C 76 % 0 lf 1016,6 hPa 0,0 l/m 0 min 0 min 0 W/m 2,1 km/h (1 Bft)
11.07.2015 02:52 14,7 C 11,7 C 76 % 0 lf 1016,6 hPa 0,0 l/m 0 min 0 min 0 W/m 2,1 km/h (1 Bft)
11.07.2015 02:54 14,6 C 11,7 C 76 % 0 lf 1016,7 hPa 0,0 l/m 0 min 0 min 0 W/m 4,2 km/h (1 Bft)
11.07.2015 02:56 14,6 C 11,7 C 77 % 0 lf 1016,6 hPa 0,0 l/m 0 min 0 min 0 W/m 4,2 km/h (1 Bft)
11.07.2015 02:58 14,6 C 11,7 C 77 % 0 lf 1016,6 hPa 0,0 l/m 0 min 0 min 0 W/m 6,3 km/h (2 Bft)
11.07.2015 03:00 14,5 C 11,7 C 77 % 0 lf 1016,5 hPa 0,0 l/m 0 min 0 min 0 W/m 4,2 km/h (1 Bft)
11.07.2015 03:02 14,4 C 12,2 C 77 % 0 lf 1016,5 hPa 0,0 l/m 0 min 0 min 0 W/m 4,2 km/h (1 Bft)
11.07.2015 03:04 14,4 C 12,2 C 77 % 0 lf 1016,6 hPa 0,0 l/m 0 min 0 min 0 W/m 2,1 km/h (1 Bft)
11.07.2015 03:06 14,4 C 12,2 C 78 % 0 lf 1016,6 hPa 0,0 l/m 0 min 0 min 0 W/m 2,1 km/h (1 Bft)
11.07.2015 03:08 14,3 C 12,2 C 78 % 0 lf 1016,6 hPa 0,0 l/m 0 min 0 min 0 W/m 2,1 km/h (1 Bft)
11.07.2015 03:10 14,3 C 12,2 C 78 % 0 lf 1016,6 hPa 0,0 l/m 0 min 0 min 0 W/m 2,1 km/h (1 Bft)
11.07.2015 03:12 14,3 C 12,2 C 78 % 0 lf 1016,6 hPa 0,0 l/m 0 min 0 min 0 W/m 2,1 km/h (1 Bft)
11.07.2015 03:14 14,2 C 12,2 C 78 % 0 lf 1016,5 hPa 0,0 l/m 0 min 0 min 0 W/m 2,1 km/h (1 Bft)
11.07.2015 03:16 14,2 C 12,2 C 78 % 0 lf 1016,4 hPa 0,0 l/m 0 min 0 min 0 W/m 4,2 km/h (1 Bft)
11.07.2015 03:18 14,2 C 12,2 C 78 % 0 lf 1016,3 hPa 0,0 l/m 0 min 0 min 0 W/m 10,5 km/h (2 Bft)
11.07.2015 03:20 14,2 C 12,2 C 79 % 0 lf 1016,2 hPa 0,0 l/m 0 min 0 min 0 W/m 10,5 km/h (2 Bft)
11.07.2015 03:22 14,2 C 12,8 C 79 % 0 lf 1016,1 hPa 0,0 l/m 0 min 0 min 0 W/m 6,3 km/h (2 Bft)
11.07.2015 03:24 14,2 C 12,8 C 79 % 0 lf 1016,2 hPa 0,0 l/m 0 min 0 min 0 W/m 6,3 km/h (2 Bft)
11.07.2015 03:26 14,2 C 12,8 C 79 % 0 lf 1016,3 hPa 0,0 l/m 0 min 0 min 0 W/m 6,3 km/h (2 Bft)
11.07.2015 03:28 14,2 C 12,8 C 79 % 0 lf 1016,4 hPa 0,0 l/m 0 min 0 min 0 W/m 4,2 km/h (1 Bft)
11.07.2015 03:30 14,2 C 12,8 C 79 % 0 lf 1016,4 hPa 0,0 l/m 0 min 0 min 0 W/m 6,3 km/h (2 Bft)
11.07.2015 03:32 14,2 C 12,8 C 79 % 0 lf 1016,4 hPa 0,0 l/m 0 min 0 min 0 W/m 2,1 km/h (1 Bft)
11.07.2015 03:34 14,2 C 12,8 C 80 % 0 lf 1016,5 hPa 0,0 l/m 0 min 0 min 0 W/m 2,1 km/h (1 Bft)
11.07.2015 03:36 14,2 C 12,8 C 80 % 0 lf 1016,5 hPa 0,0 l/m 0 min 0 min 0 W/m 2,1 km/h (1 Bft)
11.07.2015 03:38 14,2 C 12,8 C 80 % 0 lf 1016,5 hPa 0,0 l/m 0 min 0 min 0 W/m 2,1 km/h (1 Bft)
11.07.2015 03:40 14,2 C 12,2 C 80 % 0 lf 1016,5 hPa 0,0 l/m 0 min 0 min 0 W/m 2,1 km/h (1 Bft)
11.07.2015 03:42 14,2 C 12,2 C 80 % 0 lf 1016,5 hPa 0,0 l/m 0 min 0 min 0 W/m 2,1 km/h (1 Bft)
11.07.2015 03:44 14,2 C 12,2 C 80 % 0 lf 1016,4 hPa 0,0 l/m 0 min 0 min 0 W/m 2,1 km/h (1 Bft)
11.07.2015 03:46 14,2 C 12,2 C 80 % 0 lf 1016,4 hPa 0,0 l/m 0 min 0 min 0 W/m 2,1 km/h (1 Bft)
11.07.2015 03:48 14,2 C 12,2 C 80 % 0 lf 1016,3 hPa 0,0 l/m 0 min 0 min 0 W/m 2,1 km/h (1 Bft)
11.07.2015 03:50 14,2 C 12,2 C 80 % 0 lf 1016,2 hPa 0,0 l/m 0 min 0 min 0 W/m 4,2 km/h (1 Bft)
11.07.2015 03:52 14,2 C 12,2 C 80 % 0 lf 1016,2 hPa 0,0 l/m 0 min 0 min 0 W/m 6,3 km/h (2 Bft)
11.07.2015 03:54 14,2 C 12,2 C 80 % 0 lf 1016,2 hPa 0,0 l/m 0 min 0 min 0 W/m 6,3 km/h (2 Bft)
11.07.2015 03:56 14,2 C 12,2 C 80 % 0 lf 1016,2 hPa 0,0 l/m 0 min 0 min 0 W/m 4,2 km/h (1 Bft)
11.07.2015 03:58 14,2 C 12,2 C 80 % 0 lf 1016,2 hPa 0,0 l/m 0 min 0 min 0 W/m 4,2 km/h (1 Bft)
11.07.2015 04:00 14,1 C 12,2 C 80 % 0 lf 1016,2 hPa 0,0 l/m 0 min 0 min 0 W/m 4,2 km/h (1 Bft)
11.07.2015 04:02 14,1 C 12,2 C 80 % 0 lf 1016,1 hPa 0,0 l/m 0 min 0 min 0 W/m 4,2 km/h (1 Bft)
11.07.2015 04:04 14,1 C 12,2 C 80 % 0 lf 1016,1 hPa 0,0 l/m 0 min 0 min 0 W/m 6,3 km/h (2 Bft)
11.07.2015 04:06 14,1 C 12,2 C 80 % 0 lf 1016,1 hPa 0,0 l/m 0 min 0 min 0 W/m 4,2 km/h (1 Bft)
11.07.2015 04:08 14,1 C 12,2 C 80 % 0 lf 1016,1 hPa 0,0 l/m 0 min 0 min 0 W/m 4,2 km/h (1 Bft)
11.07.2015 04:10 14,1 C 12,2 C 80 % 0 lf 1016,1 hPa 0,0 l/m 0 min 0 min 0 W/m 4,2 km/h (1 Bft)
11.07.2015 04:12 14,1 C 12,2 C 81 % 0 lf 1016,1 hPa 0,0 l/m 0 min 0 min 0 W/m 4,2 km/h (1 Bft)
11.07.2015 04:14 14,1 C 12,2 C 81 % 0 lf 1016,1 hPa 0,0 l/m 0 min 0 min 0 W/m 2,1 km/h (1 Bft)
11.07.2015 04:16 14,1 C 12,2 C 81 % 0 lf 1016,1 hPa 0,0 l/m 0 min 0 min 0 W/m 2,1 km/h (1 Bft)
11.07.2015 04:18 14,1 C 12,2 C 81 % 0 lf 1016,2 hPa 0,0 l/m 0 min 0 min 0 W/m 2,1 km/h (1 Bft)
11.07.2015 04:20 14,1 C 12,2 C 80 % 0 lf 1016,2 hPa 0,0 l/m 0 min 0 min 0 W/m 2,1 km/h (1 Bft)
11.07.2015 04:22 14,1 C 12,2 C 80 % 0 lf 1016,1 hPa 0,0 l/m 0 min 0 min 0 W/m 4,2 km/h (1 Bft)
11.07.2015 04:24 14,1 C 12,2 C 80 % 0 lf 1016,0 hPa 0,0 l/m 0 min 0 min 0 W/m 4,2 km/h (1 Bft)
11.07.2015 04:26 14,1 C 12,2 C 80 % 0 lf 1016,0 hPa 0,0 l/m 0 min 0 min 0 W/m 6,3 km/h (2 Bft)
11.07.2015 04:28 14,1 C 12,2 C 80 % 0 lf 1015,9 hPa 0,0 l/m 0 min 0 min 0 W/m 6,3 km/h (2 Bft)
11.07.2015 04:30 14,1 C 12,2 C 80 % 0 lf 1015,9 hPa 0,0 l/m 0 min 0 min 0 W/m 6,3 km/h (2 Bft)
11.07.2015 04:32 14,1 C 12,2 C 80 % 0 lf 1015,8 hPa 0,0 l/m 0 min 0 min 0 W/m 4,2 km/h (1 Bft)
11.07.2015 04:34 14,1 C 12,2 C 80 % 0 lf 1015,8 hPa 0,0 l/m 0 min 0 min 0 W/m 4,2 km/h (1 Bft)
11.07.2015 04:36 14,1 C 12,2 C 80 % 0 lf 1015,8 hPa 0,0 l/m 0 min 0 min 0 W/m 4,2 km/h (1 Bft)
11.07.2015 04:38 14,1 C 12,2 C 80 % 0 lf 1015,7 hPa 0,0 l/m 0 min 0 min 0 W/m 4,2 km/h (1 Bft)
11.07.2015 04:40 14,1 C 12,2 C 80 % 0 lf 1015,7 hPa 0,0 l/m 0 min 0 min 0 W/m 8,4 km/h (2 Bft)
11.07.2015 04:42 14,1 C 12,8 C 80 % 0 lf 1015,5 hPa 0,0 l/m 0 min 0 min 0 W/m 6,3 km/h (2 Bft)
11.07.2015 04:44 14,1 C 12,8 C 80 % 0 lf 1015,5 hPa 0,0 l/m 0 min 0 min 0 W/m 6,3 km/h (2 Bft)
11.07.2015 04:46 14,1 C 12,8 C 80 % 0 lf 1015,5 hPa 0,0 l/m 0 min 0 min 0 W/m 6,3 km/h (2 Bft)
11.07.2015 04:48 14,1 C 12,8 C 80 % 0 lf 1015,5 hPa 0,0 l/m 0 min 0 min 0 W/m 6,3 km/h (2 Bft)
11.07.2015 04:50 14,2 C 12,8 C 80 % 0 lf 1015,5 hPa 0,0 l/m 0 min 0 min 0 W/m 4,2 km/h (1 Bft)
11.07.2015 04:52 14,2 C 12,8 C 80 % 0 lf 1015,5 hPa 0,0 l/m 0 min 0 min 0 W/m 4,2 km/h (1 Bft)
11.07.2015 04:54 14,1 C 12,8 C 80 % 0 lf 1015,5 hPa 0,0 l/m 0 min 0 min 0 W/m 6,3 km/h (2 Bft)
11.07.2015 04:56 14,2 C 12,8 C 80 % 0 lf 1015,5 hPa 0,0 l/m 0 min 0 min 0 W/m 8,4 km/h (2 Bft)
11.07.2015 04:58 14,1 C 12,8 C 80 % 0 lf 1015,5 hPa 0,0 l/m 0 min 0 min 0 W/m 6,3 km/h (2 Bft)
11.07.2015 05:00 14,2 C 12,8 C 80 % 0 lf 1015,5 hPa 0,0 l/m 0 min 0 min 0 W/m 6,3 km/h (2 Bft)
11.07.2015 05:02 14,2 C 12,8 C 80 % 0 lf 1015,5 hPa 0,0 l/m 0 min 0 min 0 W/m 8,4 km/h (2 Bft)
11.07.2015 05:04 14,2 C 12,8 C 80 % 0 lf 1015,4 hPa 0,0 l/m 0 min 0 min 0 W/m 8,4 km/h (2 Bft)
11.07.2015 05:06 14,2 C 12,8 C 80 % 0 lf 1015,5 hPa 0,0 l/m 0 min 0 min 0 W/m 8,4 km/h (2 Bft)
11.07.2015 05:08 14,2 C 12,8 C 80 % 0 lf 1015,4 hPa 0,0 l/m 0 min 0 min 0 W/m 8,4 km/h (2 Bft)
11.07.2015 05:10 14,2 C 13,3 C 80 % 0 lf 1015,4 hPa 0,0 l/m 0 min 0 min 0 W/m 10,5 km/h (2 Bft)
11.07.2015 05:12 14,2 C 13,3 C 80 % 0 lf 1015,4 hPa 0,0 l/m 0 min 0 min 0 W/m 10,5 km/h (2 Bft)
11.07.2015 05:14 14,2 C 13,3 C 79 % 0 lf 1015,4 hPa 0,0 l/m 0 min 0 min 0 W/m 10,5 km/h (2 Bft)
11.07.2015 05:16 14,2 C 13,3 C 79 % 0 lf 1015,3 hPa 0,0 l/m 0 min 0 min 0 W/m 8,4 km/h (2 Bft)
11.07.2015 05:18 14,2 C 13,3 C 79 % 0 lf 1015,2 hPa 0,0 l/m 0 min 0 min 0 W/m 10,5 km/h (2 Bft)
11.07.2015 05:20 14,2 C 13,3 C 79 % 0 lf 1015,1 hPa 0,0 l/m 0 min 0 min 0 W/m 10,5 km/h (2 Bft)
11.07.2015 05:22 14,2 C 13,3 C 79 % 0 lf 1015,2 hPa 0,0 l/m 0 min 0 min 0 W/m 8,4 km/h (2 Bft)
11.07.2015 05:24 14,2 C 13,3 C 79 % 0 lf 1015,3 hPa 0,0 l/m 0 min 0 min 0 W/m 6,3 km/h (2 Bft)
11.07.2015 05:26 14,2 C 13,3 C 78 % 0 lf 1015,1 hPa 0,0 l/m 0 min 0 min 4 W/m 8,4 km/h (2 Bft)
11.07.2015 05:28 14,2 C 13,3 C 78 % 0 lf 1015,1 hPa 0,0 l/m 0 min 0 min 5 W/m 6,3 km/h (2 Bft)
11.07.2015 05:30 14,2 C 13,3 C 78 % 0 lf 1015,1 hPa 0,0 l/m 0 min 0 min 5 W/m 8,4 km/h (2 Bft)
11.07.2015 05:32 14,2 C 13,3 C 78 % 0 lf 1015,1 hPa 0,0 l/m 0 min 0 min 5 W/m 6,3 km/h (2 Bft)
11.07.2015 05:34 14,3 C 13,3 C 78 % 0 lf 1015,3 hPa 0,0 l/m 0 min 0 min 5 W/m 8,4 km/h (2 Bft)
11.07.2015 05:36 14,3 C 13,3 C 78 % 0 lf 1015,2 hPa 0,0 l/m 0 min 0 min 5 W/m 8,4 km/h (2 Bft)
11.07.2015 05:38 14,3 C 13,3 C 78 % 0 lf 1015,3 hPa 0,0 l/m 0 min 0 min 5 W/m 6,3 km/h (2 Bft)
11.07.2015 05:40 14,4 C 13,3 C 78 % 0 lf 1015,3 hPa 0,0 l/m 0 min 0 min 5 W/m 4,2 km/h (1 Bft)
11.07.2015 05:42 14,4 C 13,3 C 77 % 0 lf 1015,3 hPa 0,0 l/m 0 min 0 min 7 W/m 6,3 km/h (2 Bft)
11.07.2015 05:44 14,4 C 13,3 C 77 % 0 lf 1015,2 hPa 0,0 l/m 0 min 0 min 7 W/m 8,4 km/h (2 Bft)
11.07.2015 05:46 14,4 C 13,3 C 77 % 0 lf 1015,1 hPa 0,0 l/m 0 min 0 min 7 W/m 8,4 km/h (2 Bft)
11.07.2015 05:48 14,4 C 13,3 C 77 % 0 lf 1015,0 hPa 0,0 l/m 0 min 0 min 10 W/m 6,3 km/h (2 Bft)
11.07.2015 05:50 14,4 C 13,3 C 77 % 0 lf 1015,0 hPa 0,0 l/m 0 min 0 min 11 W/m 8,4 km/h (2 Bft)
11.07.2015 05:52 14,4 C 13,3 C 77 % 0 lf 1014,9 hPa 0,0 l/m 0 min 0 min 12 W/m 8,4 km/h (2 Bft)
11.07.2015 05:54 14,5 C 13,3 C 77 % 0 lf 1014,8 hPa 0,0 l/m 0 min 0 min 12 W/m 6,3 km/h (2 Bft)
11.07.2015 05:56 14,5 C 13,3 C 77 % 0 lf 1014,7 hPa 0,0 l/m 0 min 0 min 13 W/m 8,4 km/h (2 Bft)
11.07.2015 05:58 14,6 C 13,3 C 77 % 0 lf 1014,7 hPa 0,0 l/m 0 min 0 min 15 W/m 10,5 km/h (2 Bft)
11.07.2015 06:00 14,6 C 13,3 C 76 % 0 lf 1014,6 hPa 0,0 l/m 0 min 0 min 19 W/m 14,6 km/h (3 Bft)
11.07.2015 06:02 14,6 C 13,9 C 76 % 0 lf 1014,6 hPa 0,0 l/m 0 min 0 min 23 W/m 12,6 km/h (3 Bft)
11.07.2015 06:05 14,6 C 13,9 C 76 % 0 lf 1014,7 hPa 0,0 l/m 0 min 0 min 21 W/m 16,7 km/h (3 Bft)
11.07.2015 06:08 14,7 C 13,9 C 76 % 0 lf 1014,7 hPa 0,0 l/m 0 min 0 min 20 W/m 16,7 km/h (3 Bft)
11.07.2015 06:10 14,7 C 13,9 C 76 % 0 lf 1014,7 hPa 0,0 l/m 0 min 0 min 19 W/m 12,6 km/h (3 Bft)
11.07.2015 06:12 14,7 C 13,9 C 76 % 0 lf 1014,7 hPa 0,0 l/m 0 min 0 min 19 W/m 10,5 km/h (2 Bft)
11.07.2015 06:14 14,7 C 13,9 C 76 % 0 lf 1014,8 hPa 0,0 l/m 0 min 0 min 19 W/m 8,4 km/h (2 Bft)
11.07.2015 06:16 14,8 C 13,9 C 75 % 0 lf 1014,8 hPa 0,0 l/m 0 min 0 min 19 W/m 8,4 km/h (2 Bft)
11.07.2015 06:18 14,8 C 13,9 C 75 % 0 lf 1015,0 hPa 0,0 l/m 0 min 0 min 21 W/m 10,5 km/h (2 Bft)
11.07.2015 06:20 14,8 C 13,9 C 75 % 0 lf 1015,0 hPa 0,0 l/m 0 min 0 min 22 W/m 10,5 km/h (2 Bft)
11.07.2015 06:22 14,8 C 13,9 C 76 % 0 lf 1015,0 hPa 0,0 l/m 0 min 0 min 23 W/m 8,4 km/h (2 Bft)
11.07.2015 06:24 14,8 C 13,9 C 76 % 0 lf 1015,0 hPa 0,0 l/m 0 min 0 min 25 W/m 10,5 km/h (2 Bft)
11.07.2015 06:26 14,9 C 13,9 C 76 % 0 lf 1015,0 hPa 0,0 l/m 0 min 0 min 27 W/m 10,5 km/h (2 Bft)
11.07.2015 06:28 14,9 C 13,9 C 76 % 0 lf 1015,0 hPa 0,0 l/m 0 min 0 min 31 W/m 6,3 km/h (2 Bft)
11.07.2015 06:30 14,9 C 13,9 C 76 % 0 lf 1015,1 hPa 0,0 l/m 0 min 0 min 35 W/m 10,5 km/h (2 Bft)
11.07.2015 06:32 14,9 C 13,9 C 76 % 0 lf 1015,1 hPa 0,0 l/m 0 min 0 min 39 W/m 8,4 km/h (2 Bft)
11.07.2015 06:34 14,9 C 13,9 C 76 % 0 lf 1015,0 hPa 0,0 l/m 0 min 0 min 44 W/m 8,4 km/h (2 Bft)
11.07.2015 06:36 14,9 C 13,9 C 76 % 0 lf 1015,0 hPa 0,0 l/m 0 min 0 min 49 W/m 10,5 km/h (2 Bft)
11.07.2015 06:38 14,9 C 13,9 C 76 % 0 lf 1014,9 hPa 0,0 l/m 0 min 0 min 53 W/m 10,5 km/h (2 Bft)
11.07.2015 06:40 15,0 C 13,9 C 76 % 0 lf 1015,0 hPa 0,0 l/m 0 min 0 min 53 W/m 8,4 km/h (2 Bft)
11.07.2015 06:42 15,0 C 13,9 C 75 % 0 lf 1014,9 hPa 0,0 l/m 0 min 0 min 53 W/m 10,5 km/h (2 Bft)
11.07.2015 06:44 15,0 C 13,9 C 75 % 0 lf 1014,9 hPa 0,0 l/m 0 min 0 min 52 W/m 6,3 km/h (2 Bft)
11.07.2015 06:46 15,0 C 13,9 C 75 % 0 lf 1014,9 hPa 0,0 l/m 0 min 0 min 54 W/m 8,4 km/h (2 Bft)
11.07.2015 06:48 15,0 C 13,9 C 75 % 0 lf 1014,8 hPa 0,0 l/m 0 min 0 min 57 W/m 10,5 km/h (2 Bft)
11.07.2015 06:50 15,1 C 13,9 C 75 % 0 lf 1014,7 hPa 0,0 l/m 0 min 0 min 63 W/m 10,5 km/h (2 Bft)
11.07.2015 06:52 15,1 C 13,9 C 75 % 0 lf 1014,7 hPa 0,0 l/m 0 min 0 min 67 W/m 8,4 km/h (2 Bft)
11.07.2015 06:54 15,1 C 13,9 C 75 % 0 lf 1014,7 hPa 0,0 l/m 0 min 0 min 72 W/m 14,6 km/h (3 Bft)
11.07.2015 06:56 15,1 C 13,9 C 75 % 0 lf 1014,7 hPa 0,0 l/m 0 min 0 min 74 W/m 10,5 km/h (2 Bft)
11.07.2015 06:58 15,1 C 14,4 C 74 % 0 lf 1014,7 hPa 0,0 l/m 0 min 0 min 76 W/m 12,6 km/h (3 Bft)
11.07.2015 07:00 15,2 C 13,9 C 74 % 0 lf 1014,6 hPa 0,0 l/m 0 min 0 min 77 W/m 12,6 km/h (3 Bft)
11.07.2015 07:02 15,2 C 13,9 C 74 % 0 lf 1014,6 hPa 0,0 l/m 0 min 0 min 90 W/m 10,5 km/h (2 Bft)
11.07.2015 07:04 15,2 C 13,9 C 74 % 0 lf 1014,6 hPa 0,0 l/m 2 min 0 min 122 W/m 8,4 km/h (2 Bft)
11.07.2015 07:06 15,2 C 13,9 C 74 % 0 lf 1014,6 hPa 0,0 l/m 2 min 0 min 132 W/m 12,6 km/h (3 Bft)
11.07.2015 07:08 15,2 C 13,9 C 74 % 0 lf 1014,5 hPa 0,0 l/m 2 min 0 min 143 W/m 14,6 km/h (3 Bft)
11.07.2015 07:10 15,3 C 13,9 C 74 % 0 lf 1014,6 hPa 0,0 l/m 2 min 0 min 172 W/m 8,4 km/h (2 Bft)
11.07.2015 07:12 15,3 C 13,9 C 74 % 0 lf 1014,5 hPa 0,0 l/m 2 min 0 min 201 W/m 8,4 km/h (2 Bft)
11.07.2015 07:14 15,3 C 13,9 C 75 % 0 lf 1014,5 hPa 0,0 l/m 2 min 0 min 204 W/m 8,4 km/h (2 Bft)
11.07.2015 07:16 15,3 C 13,9 C 75 % 0 lf 1014,4 hPa 0,0 l/m 2 min 0 min 210 W/m 8,4 km/h (2 Bft)
11.07.2015 07:18 15,4 C 13,9 C 75 % 0 lf 1014,4 hPa 0,0 l/m 2 min 0 min 213 W/m 14,6 km/h (3 Bft)
11.07.2015 07:20 15,4 C 13,9 C 74 % 0 lf 1014,3 hPa 0,0 l/m 2 min 0 min 206 W/m 14,6 km/h (3 Bft)
11.07.2015 07:22 15,4 C 13,9 C 74 % 0 lf 1014,3 hPa 0,0 l/m 2 min 0 min 210 W/m 12,6 km/h (3 Bft)
11.07.2015 07:24 15,4 C 13,9 C 74 % 0 lf 1014,4 hPa 0,0 l/m 2 min 0 min 188 W/m 14,6 km/h (3 Bft)
11.07.2015 07:26 15,4 C 13,9 C 74 % 0 lf 1014,4 hPa 0,0 l/m 0 min 0 min 92 W/m 18,8 km/h (3 Bft)
11.07.2015 07:28 15,4 C 14,4 C 74 % 0 lf 1014,4 hPa 0,0 l/m 0 min 0 min 78 W/m 18,8 km/h (3 Bft)
11.07.2015 07:30 15,5 C 14,4 C 73 % 0 lf 1014,4 hPa 0,0 l/m 0 min 0 min 68 W/m 14,6 km/h (3 Bft)
11.07.2015 07:32 15,5 C 14,4 C 73 % 0 lf 1014,4 hPa 0,0 l/m 0 min 0 min 108 W/m 18,8 km/h (3 Bft)
11.07.2015 07:34 15,6 C 14,4 C 73 % 0 lf 1014,4 hPa 0,0 l/m 2 min 0 min 249 W/m 18,8 km/h (3 Bft)
11.07.2015 07:36 15,6 C 14,4 C 73 % 0 lf 1014,3 hPa 0,0 l/m 2 min 0 min 254 W/m 14,6 km/h (3 Bft)
11.07.2015 07:38 15,6 C 14,4 C 73 % 0 lf 1014,3 hPa 0,0 l/m 2 min 0 min 258 W/m 18,8 km/h (3 Bft)
11.07.2015 07:40 15,7 C 14,4 C 73 % 0 lf 1014,3 hPa 0,0 l/m 2 min 0 min 262 W/m 18,8 km/h (3 Bft)
11.07.2015 07:42 15,7 C 14,4 C 73 % 0 lf 1014,3 hPa 0,0 l/m 2 min 0 min 268 W/m 14,6 km/h (3 Bft)
11.07.2015 07:44 15,7 C 14,4 C 73 % 0 lf 1014,3 hPa 0,0 l/m 2 min 0 min 273 W/m 14,6 km/h (3 Bft)
11.07.2015 07:46 15,8 C 15,0 C 73 % 0 lf 1014,2 hPa 0,0 l/m 2 min 0 min 279 W/m 18,8 km/h (3 Bft)
11.07.2015 07:48 15,8 C 15,0 C 73 % 0 lf 1014,2 hPa 0,0 l/m 2 min 0 min 285 W/m 16,7 km/h (3 Bft)
11.07.2015 07:50 15,9 C 15,0 C 72 % 0 lf 1014,2 hPa 0,0 l/m 2 min 0 min 292 W/m 20,9 km/h (4 Bft)
11.07.2015 07:52 15,9 C 15,0 C 72 % 0 lf 1014,2 hPa 0,0 l/m 2 min 0 min 297 W/m 20,9 km/h (4 Bft)
11.07.2015 07:54 16,0 C 15,0 C 72 % 0 lf 1014,2 hPa 0,0 l/m 2 min 0 min 309 W/m 20,9 km/h (4 Bft)
11.07.2015 07:56 16,1 C 15,0 C 72 % 0 lf 1014,2 hPa 0,0 l/m 2 min 0 min 319 W/m 20,9 km/h (4 Bft)
11.07.2015 07:58 16,2 C 15,0 C 71 % 0 lf 1014,3 hPa 0,0 l/m 2 min 0 min 329 W/m 23,0 km/h (4 Bft)
11.07.2015 08:00 16,2 C 15,6 C 71 % 0 lf 1014,3 hPa 0,0 l/m 2 min 0 min 343 W/m 16,7 km/h (3 Bft)
11.07.2015 08:02 16,3 C 15,6 C 71 % 0 lf 1014,2 hPa 0,0 l/m 2 min 0 min 359 W/m 14,6 km/h (3 Bft)
11.07.2015 08:04 16,4 C 15,6 C 71 % 0 lf 1014,3 hPa 0,0 l/m 2 min 0 min 372 W/m 16,7 km/h (3 Bft)
11.07.2015 08:06 16,5 C 16,1 C 71 % 0 lf 1014,3 hPa 0,0 l/m 2 min 0 min 386 W/m 14,6 km/h (3 Bft)
11.07.2015 08:08 16,6 C 16,1 C 71 % 0 lf 1014,3 hPa 0,0 l/m 2 min 0 min 396 W/m 23,0 km/h (4 Bft)
11.07.2015 08:10 16,7 C 16,1 C 70 % 0 lf 1014,3 hPa 0,0 l/m 2 min 0 min 414 W/m 18,8 km/h (3 Bft)
11.07.2015 08:12 16,8 C 16,1 C 70 % 0 lf 1014,3 hPa 0,0 l/m 2 min 0 min 430 W/m 16,7 km/h (3 Bft)
11.07.2015 08:14 16,9 C 16,7 C 70 % 0 lf 1014,3 hPa 0,0 l/m 2 min 0 min 436 W/m 14,6 km/h (3 Bft)
11.07.2015 08:16 17,0 C 16,7 C 69 % 0 lf 1014,4 hPa 0,0 l/m 2 min 0 min 408 W/m 27,2 km/h (4 Bft)
11.07.2015 08:18 17,1 C 16,7 C 68 % 0 lf 1014,4 hPa 0,0 l/m 2 min 0 min 314 W/m 18,8 km/h (3 Bft)
11.07.2015 08:20 17,2 C 16,7 C 68 % 0 lf 1014,4 hPa 0,0 l/m 2 min 0 min 212 W/m 14,6 km/h (3 Bft)
11.07.2015 08:22 17,3 C 16,7 C 66 % 0 lf 1014,3 hPa 0,0 l/m 2 min 0 min 218 W/m 20,9 km/h (4 Bft)
11.07.2015 08:24 17,4 C 16,7 C 66 % 0 lf 1014,3 hPa 0,0 l/m 2 min 0 min 402 W/m 14,6 km/h (3 Bft)
11.07.2015 08:26 17,6 C 16,7 C 66 % 0 lf 1014,3 hPa 0,0 l/m 2 min 0 min 343 W/m 14,6 km/h (3 Bft)
11.07.2015 08:28 17,7 C 16,7 C 67 % 0 lf 1014,3 hPa 0,0 l/m 2 min 0 min 295 W/m 14,6 km/h (3 Bft)
11.07.2015 08:30 17,8 C 17,2 C 66 % 0 lf 1014,3 hPa 0,0 l/m 2 min 0 min 380 W/m 18,8 km/h (3 Bft)
11.07.2015 08:32 17,8 C 17,2 C 66 % 0 lf 1014,3 hPa 0,0 l/m 2 min 0 min 335 W/m 18,8 km/h (3 Bft)
11.07.2015 08:34 17,9 C 17,2 C 65 % 0 lf 1014,4 hPa 0,0 l/m 2 min 0 min 267 W/m 18,8 km/h (3 Bft)
11.07.2015 08:36 18,1 C 17,2 C 65 % 0 lf 1014,5 hPa 0,0 l/m 2 min 0 min 344 W/m 20,9 km/h (4 Bft)
11.07.2015 08:38 18,1 C 17,2 C 65 % 0 lf 1014,5 hPa 0,0 l/m 2 min 0 min 456 W/m 16,7 km/h (3 Bft)
11.07.2015 08:40 18,2 C 17,8 C 65 % 0 lf 1014,5 hPa 0,0 l/m 2 min 0 min 228 W/m 16,7 km/h (3 Bft)
11.07.2015 08:42 18,3 C 17,8 C 64 % 0 lf 1014,4 hPa 0,0 l/m 0 min 0 min 207 W/m 10,5 km/h (2 Bft)
11.07.2015 08:44 18,4 C 17,8 C 64 % 0 lf 1014,4 hPa 0,0 l/m 0 min 0 min 206 W/m 14,6 km/h (3 Bft)
11.07.2015 08:46 18,4 C 17,8 C 64 % 0 lf 1014,4 hPa 0,0 l/m 0 min 0 min 208 W/m 12,6 km/h (3 Bft)
11.07.2015 08:48 18,5 C 17,8 C 64 % 0 lf 1014,4 hPa 0,0 l/m 2 min 0 min 255 W/m 18,8 km/h (3 Bft)
11.07.2015 08:50 18,6 C 17,8 C 63 % 0 lf 1014,4 hPa 0,0 l/m 2 min 0 min 227 W/m 18,8 km/h (3 Bft)
11.07.2015 08:52 18,6 C 17,8 C 63 % 0 lf 1014,3 hPa 0,0 l/m 0 min 0 min 206 W/m 12,6 km/h (3 Bft)
11.07.2015 08:54 18,7 C 17,8 C 62 % 0 lf 1014,4 hPa 0,0 l/m 0 min 0 min 193 W/m 16,7 km/h (3 Bft)
11.07.2015 08:56 18,7 C 17,2 C 63 % 0 lf 1014,4 hPa 0,0 l/m 0 min 0 min 191 W/m 14,6 km/h (3 Bft)
11.07.2015 08:58 18,7 C 17,2 C 63 % 0 lf 1014,5 hPa 0,0 l/m 0 min 0 min 219 W/m 14,6 km/h (3 Bft)
11.07.2015 09:00 18,7 C 17,2 C 63 % 0 lf 1014,5 hPa 0,0 l/m 2 min 0 min 258 W/m 10,5 km/h (2 Bft)
11.07.2015 09:02 18,8 C 17,2 C 63 % 0 lf 1014,6 hPa 0,0 l/m 2 min 0 min 301 W/m 14,6 km/h (3 Bft)
11.07.2015 09:04 18,8 C 17,8 C 63 % 0 lf 1014,6 hPa 0,0 l/m 2 min 0 min 305 W/m 14,6 km/h (3 Bft)
11.07.2015 09:06 18,8 C 17,8 C 63 % 0 lf 1014,6 hPa 0,0 l/m 2 min 0 min 311 W/m 10,5 km/h (2 Bft)
11.07.2015 09:08 18,8 C 17,8 C 63 % 0 lf 1014,4 hPa 0,0 l/m 2 min 0 min 338 W/m 12,6 km/h (3 Bft)
11.07.2015 09:10 18,9 C 17,8 C 63 % 0 lf 1014,3 hPa 0,0 l/m 2 min 0 min 342 W/m 10,5 km/h (2 Bft)
11.07.2015 09:12 18,9 C 17,8 C 64 % 0 lf 1014,2 hPa 0,0 l/m 2 min 0 min 413 W/m 16,7 km/h (3 Bft)
11.07.2015 09:14 19,0 C 17,8 C 64 % 0 lf 1014,2 hPa 0,0 l/m 2 min 0 min 405 W/m 20,9 km/h (4 Bft)
11.07.2015 09:16 19,1 C 17,8 C 63 % 0 lf 1014,2 hPa 0,0 l/m 2 min 0 min 331 W/m 16,7 km/h (3 Bft)
11.07.2015 09:18 19,2 C 17,8 C 63 % 0 lf 1014,3 hPa 0,0 l/m 2 min 0 min 327 W/m 20,9 km/h (4 Bft)
11.07.2015 09:20 19,2 C 17,8 C 62 % 0 lf 1014,2 hPa 0,0 l/m 2 min 0 min 392 W/m 20,9 km/h (4 Bft)
11.07.2015 09:22 19,3 C 17,8 C 62 % 0 lf 1014,2 hPa 0,0 l/m 2 min 0 min 329 W/m 14,6 km/h (3 Bft)
11.07.2015 09:24 19,3 C 18,3 C 62 % 0 lf 1014,2 hPa 0,0 l/m 2 min 0 min 319 W/m 10,5 km/h (2 Bft)
11.07.2015 09:26 19,4 C 18,3 C 62 % 0 lf 1014,3 hPa 0,0 l/m 2 min 0 min 339 W/m 10,5 km/h (2 Bft)
11.07.2015 09:28 19,4 C 18,3 C 62 % 0 lf 1014,3 hPa 0,0 l/m 2 min 0 min 386 W/m 16,7 km/h (3 Bft)
11.07.2015 09:30 19,5 C 18,3 C 62 % 0 lf 1014,3 hPa 0,0 l/m 2 min 0 min 390 W/m 14,6 km/h (3 Bft)
11.07.2015 09:32 19,6 C 18,3 C 62 % 0 lf 1014,2 hPa 0,0 l/m 2 min 0 min 367 W/m 18,8 km/h (3 Bft)
11.07.2015 09:34 19,6 C 18,3 C 62 % 0 lf 1014,2 hPa 0,0 l/m 0 min 0 min 258 W/m 14,6 km/h (3 Bft)
11.07.2015 09:36 19,7 C 18,3 C 62 % 0 lf 1014,2 hPa 0,0 l/m 2 min 0 min 296 W/m 25,1 km/h (4 Bft)
11.07.2015 09:38 19,7 C 18,9 C 62 % 0 lf 1014,2 hPa 0,0 l/m 2 min 0 min 332 W/m 18,8 km/h (3 Bft)
11.07.2015 09:40 19,8 C 19,4 C 62 % 0 lf 1014,3 hPa 0,0 l/m 2 min 0 min 570 W/m 14,6 km/h (3 Bft)
11.07.2015 09:42 19,9 C 19,4 C 62 % 0 lf 1014,3 hPa 0,0 l/m 2 min 0 min 512 W/m 14,6 km/h (3 Bft)
11.07.2015 09:44 20,0 C 19,4 C 62 % 0 lf 1014,3 hPa 0,0 l/m 2 min 0 min 400 W/m 14,6 km/h (3 Bft)
11.07.2015 09:46 20,1 C 19,4 C 61 % 0 lf 1014,3 hPa 0,0 l/m 2 min 0 min 292 W/m 16,7 km/h (3 Bft)
11.07.2015 09:48 20,1 C 19,4 C 61 % 0 lf 1014,2 hPa 0,0 l/m 0 min 0 min 258 W/m 20,9 km/h (4 Bft)
11.07.2015 09:50 20,2 C 19,4 C 61 % 0 lf 1014,3 hPa 0,0 l/m 0 min 0 min 247 W/m 10,5 km/h (2 Bft)
11.07.2015 09:52 20,2 C 18,9 C 61 % 0 lf 1014,3 hPa 0,0 l/m 0 min 0 min 223 W/m 14,6 km/h (3 Bft)
11.07.2015 09:54 20,3 C 18,9 C 61 % 0 lf 1014,3 hPa 0,0 l/m 0 min 0 min 228 W/m 18,8 km/h (3 Bft)
11.07.2015 09:56 20,3 C 18,9 C 60 % 0 lf 1014,3 hPa 0,0 l/m 0 min 0 min 246 W/m 20,9 km/h (4 Bft)
11.07.2015 09:58 20,3 C 19,4 C 59 % 0 lf 1014,2 hPa 0,0 l/m 0 min 0 min 282 W/m 16,7 km/h (3 Bft)
11.07.2015 10:00 20,3 C 19,4 C 59 % 0 lf 1014,2 hPa 0,0 l/m 2 min 0 min 374 W/m 12,6 km/h (3 Bft)
11.07.2015 10:02 20,3 C 20,0 C 59 % 0 lf 1014,1 hPa 0,0 l/m 2 min 0 min 372 W/m 14,6 km/h (3 Bft)
11.07.2015 10:04 20,3 C 20,0 C 59 % 0 lf 1014,2 hPa 0,0 l/m 2 min 0 min 345 W/m 12,6 km/h (3 Bft)
11.07.2015 10:06 20,4 C 20,6 C 59 % 0 lf 1014,1 hPa 0,0 l/m 2 min 0 min 376 W/m 12,6 km/h (3 Bft)
11.07.2015 10:08 20,4 C 20,0 C 59 % 0 lf 1014,3 hPa 0,0 l/m 2 min 0 min 314 W/m 8,4 km/h (2 Bft)
11.07.2015 10:10 20,4 C 19,4 C 59 % 0 lf 1014,3 hPa 0,0 l/m 0 min 0 min 215 W/m 20,9 km/h (4 Bft)
11.07.2015 10:12 20,4 C 19,4 C 58 % 0 lf 1014,3 hPa 0,0 l/m 0 min 0 min 254 W/m 14,6 km/h (3 Bft)
11.07.2015 10:14 20,4 C 20,6 C 58 % 0 lf 1014,3 hPa 0,0 l/m 0 min 0 min 308 W/m 16,7 km/h (3 Bft)
11.07.2015 10:16 20,5 C 21,7 C 58 % 0 lf 1014,3 hPa 0,0 l/m 2 min 0 min 615 W/m 16,7 km/h (3 Bft)
11.07.2015 10:18 20,6 C 22,2 C 59 % 0 lf 1014,3 hPa 0,0 l/m 2 min 0 min 587 W/m 12,6 km/h (3 Bft)
11.07.2015 10:20 20,6 C 24,4 C 61 % 0 lf 1014,3 hPa 0,0 l/m 2 min 0 min 622 W/m 14,6 km/h (3 Bft)
11.07.2015 10:22 20,8 C 25,0 C 60 % 0 lf 1014,3 hPa 0,0 l/m 2 min 0 min 633 W/m 14,6 km/h (3 Bft)
11.07.2015 10:24 20,9 C 25,0 C 59 % 0 lf 1014,3 hPa 0,0 l/m 2 min 0 min 642 W/m 14,6 km/h (3 Bft)
11.07.2015 10:26 21,0 C 25,6 C 59 % 0 lf 1014,3 hPa 0,0 l/m 2 min 0 min 647 W/m 16,7 km/h (3 Bft)
11.07.2015 10:28 21,2 C 26,1 C 59 % 0 lf 1014,2 hPa 0,0 l/m 2 min 0 min 647 W/m 14,6 km/h (3 Bft)
11.07.2015 10:30 21,3 C 26,7 C 58 % 0 lf 1014,2 hPa 0,0 l/m 2 min 0 min 724 W/m 14,6 km/h (3 Bft)
11.07.2015 10:32 21,6 C 27,2 C 59 % 0 lf 1014,2 hPa 0,0 l/m 2 min 0 min 774 W/m 16,7 km/h (3 Bft)
11.07.2015 10:34 21,7 C 27,2 C 58 % 0 lf 1014,2 hPa 0,0 l/m 2 min 0 min 745 W/m 18,8 km/h (3 Bft)
11.07.2015 10:36 21,9 C 26,7 C 56 % 0 lf 1014,3 hPa 0,0 l/m 2 min 0 min 693 W/m 20,9 km/h (4 Bft)
11.07.2015 10:38 22,1 C 25,6 C 56 % 0 lf 1014,3 hPa 0,0 l/m 2 min 0 min 645 W/m 14,6 km/h (3 Bft)
11.07.2015 10:40 22,2 C 25,0 C 55 % 0 lf 1014,3 hPa 0,0 l/m 2 min 0 min 645 W/m 14,6 km/h (3 Bft)
11.07.2015 10:42 22,3 C 25,6 C 55 % 0 lf 1014,3 hPa 0,0 l/m 2 min 0 min 697 W/m 18,8 km/h (3 Bft)
11.07.2015 10:44 22,4 C 25,6 C 54 % 0 lf 1014,2 hPa 0,0 l/m 2 min 0 min 785 W/m 12,6 km/h (3 Bft)
11.07.2015 10:46 22,6 C 25,6 C 55 % 0 lf 1014,2 hPa 0,0 l/m 2 min 0 min 764 W/m 14,6 km/h (3 Bft)
11.07.2015 10:48 22,7 C 26,1 C 54 % 0 lf 1014,3 hPa 0,0 l/m 2 min 0 min 783 W/m 16,7 km/h (3 Bft)
11.07.2015 10:50 22,8 C 26,7 C 54 % 0 lf 1014,3 hPa 0,0 l/m 2 min 0 min 760 W/m 16,7 km/h (3 Bft)
11.07.2015 10:52 23,0 C 27,2 C 54 % 0 lf 1014,3 hPa 0,0 l/m 2 min 0 min 739 W/m 16,7 km/h (3 Bft)
11.07.2015 10:54 23,1 C 26,7 C 52 % 0 lf 1014,3 hPa 0,0 l/m 2 min 0 min 765 W/m 20,9 km/h (4 Bft)
11.07.2015 10:56 23,2 C 27,2 C 51 % 0 lf 1014,3 hPa 0,0 l/m 2 min 0 min 774 W/m 16,7 km/h (3 Bft)
11.07.2015 10:58 23,3 C 27,8 C 51 % 0 lf 1014,3 hPa 0,0 l/m 2 min 0 min 784 W/m 12,6 km/h (3 Bft)
11.07.2015 11:00 23,4 C 27,2 C 52 % 0 lf 1014,3 hPa 0,0 l/m 2 min 0 min 764 W/m 12,6 km/h (3 Bft)
11.07.2015 11:02 23,5 C 27,8 C 52 % 0 lf 1014,2 hPa 0,0 l/m 2 min 0 min 788 W/m 14,6 km/h (3 Bft)
11.07.2015 11:04 23,6 C 27,8 C 52 % 0 lf 1014,2 hPa 0,0 l/m 2 min 0 min 791 W/m 10,5 km/h (2 Bft)
11.07.2015 11:06 23,7 C 27,8 C 53 % 0 lf 1014,1 hPa 0,0 l/m 2 min 0 min 776 W/m 20,9 km/h (4 Bft)
11.07.2015 11:08 23,8 C 27,8 C 51 % 0 lf 1014,2 hPa 0,0 l/m 2 min 0 min 784 W/m 18,8 km/h (3 Bft)
11.07.2015 11:10 23,9 C 28,3 C 52 % 0 lf 1014,2 hPa 0,0 l/m 2 min 0 min 787 W/m 14,6 km/h (3 Bft)
11.07.2015 11:12 23,9 C 28,3 C 51 % 0 lf 1014,2 hPa 0,0 l/m 2 min 0 min 790 W/m 16,7 km/h (3 Bft)
11.07.2015 11:14 24,0 C 27,8 C 50 % 0 lf 1014,2 hPa 0,0 l/m 2 min 0 min 787 W/m 16,7 km/h (3 Bft)
11.07.2015 11:16 24,1 C 27,8 C 50 % 0 lf 1014,2 hPa 0,0 l/m 2 min 0 min 790 W/m 16,7 km/h (3 Bft)
11.07.2015 11:18 24,2 C 28,3 C 50 % 0 lf 1014,1 hPa 0,0 l/m 2 min 0 min 793 W/m 12,6 km/h (3 Bft)
11.07.2015 11:20 24,2 C 27,8 C 50 % 0 lf 1014,1 hPa 0,0 l/m 2 min 0 min 797 W/m 14,6 km/h (3 Bft)
11.07.2015 11:22 24,3 C 27,8 C 50 % 0 lf 1014,1 hPa 0,0 l/m 2 min 0 min 800 W/m 12,6 km/h (3 Bft)
11.07.2015 11:24 24,4 C 28,3 C 52 % 0 lf 1014,1 hPa 0,0 l/m 2 min 0 min 802 W/m 12,6 km/h (3 Bft)
11.07.2015 11:26 24,5 C 28,3 C 52 % 0 lf 1014,1 hPa 0,0 l/m 2 min 0 min 804 W/m 14,6 km/h (3 Bft)
11.07.2015 11:28 24,6 C 27,8 C 50 % 0 lf 1014,1 hPa 0,0 l/m 2 min 0 min 809 W/m 14,6 km/h (3 Bft)
11.07.2015 11:30 24,7 C 28,3 C 49 % 0 lf 1014,1 hPa 0,0 l/m 2 min 0 min 811 W/m 14,6 km/h (3 Bft)
11.07.2015 11:32 24,7 C 27,8 C 50 % 0 lf 1014,1 hPa 0,0 l/m 2 min 0 min 814 W/m 18,8 km/h (3 Bft)
11.07.2015 11:34 24,8 C 27,8 C 49 % 0 lf 1014,1 hPa 0,0 l/m 2 min 0 min 818 W/m 14,6 km/h (3 Bft)
11.07.2015 11:36 24,9 C 26,7 C 48 % 0 lf 1014,1 hPa 0,0 l/m 2 min 0 min 818 W/m 10,5 km/h (2 Bft)
11.07.2015 11:38 25,0 C 25,6 C 51 % 0 lf 1014,1 hPa 0,0 l/m 2 min 0 min 821 W/m 10,5 km/h (2 Bft)
11.07.2015 11:40 25,1 C 25,6 C 50 % 0 lf 1014,1 hPa 0,0 l/m 2 min 0 min 823 W/m 6,3 km/h (2 Bft)
11.07.2015 11:42 25,2 C 25,6 C 48 % 0 lf 1014,1 hPa 0,0 l/m 2 min 0 min 828 W/m 12,6 km/h (3 Bft)
11.07.2015 11:44 25,3 C 26,7 C 49 % 0 lf 1014,1 hPa 0,0 l/m 2 min 0 min 830 W/m 8,4 km/h (2 Bft)
11.07.2015 11:46 25,5 C 28,3 C 48 % 0 lf 1014,1 hPa 0,0 l/m 2 min 0 min 831 W/m 8,4 km/h (2 Bft)
11.07.2015 11:48 25,6 C 30,0 C 49 % 0 lf 1014,1 hPa 0,0 l/m 2 min 0 min 836 W/m 10,5 km/h (2 Bft)
11.07.2015 11:50 25,8 C 30,0 C 50 % 0 lf 1014,1 hPa 0,0 l/m 2 min 0 min 838 W/m 12,6 km/h (3 Bft)
11.07.2015 11:52 25,8 C 29,4 C 46 % 0 lf 1014,1 hPa 0,0 l/m 2 min 0 min 795 W/m 10,5 km/h (2 Bft)
11.07.2015 11:54 25,9 C 30,0 C 48 % 0 lf 1014,1 hPa 0,0 l/m 2 min 0 min 648 W/m 8,4 km/h (2 Bft)
11.07.2015 11:56 26,0 C 31,1 C 47 % 0 lf 1014,1 hPa 0,0 l/m 2 min 0 min 515 W/m 12,6 km/h (3 Bft)
11.07.2015 11:58 26,1 C 30,6 C 47 % 0 lf 1014,1 hPa 0,0 l/m 0 min 0 min 375 W/m 8,4 km/h (2 Bft)
11.07.2015 12:00 26,2 C 30,6 C 48 % 0 lf 1014,2 hPa 0,0 l/m 0 min 0 min 311 W/m 8,4 km/h (2 Bft)
11.07.2015 12:02 26,3 C 30,0 C 46 % 0 lf 1014,1 hPa 0,0 l/m 0 min 0 min 367 W/m 6,3 km/h (2 Bft)
11.07.2015 12:05 26,5 C 28,9 C 44 % 0 lf 1014,2 hPa 0,0 l/m 2 min 0 min 615 W/m 8,4 km/h (2 Bft)
11.07.2015 12:08 26,7 C 30,0 C 46 % 0 lf 1014,2 hPa 0,0 l/m 2 min 0 min 654 W/m 8,4 km/h (2 Bft)
11.07.2015 12:10 26,7 C 30,0 C 45 % 0 lf 1014,2 hPa 0,0 l/m 2 min 0 min 839 W/m 4,2 km/h (1 Bft)
11.07.2015 12:12 26,8 C 30,0 C 44 % 0 lf 1014,2 hPa 0,0 l/m 2 min 0 min 856 W/m 4,2 km/h (1 Bft)
11.07.2015 12:14 26,8 C 30,6 C 45 % 0 lf 1014,2 hPa 0,0 l/m 2 min 0 min 857 W/m 8,4 km/h (2 Bft)
11.07.2015 12:16 26,8 C 31,1 C 46 % 0 lf 1014,2 hPa 0,0 l/m 2 min 0 min 861 W/m 8,4 km/h (2 Bft)
11.07.2015 12:18 27,0 C 31,1 C 47 % 0 lf 1014,2 hPa 0,0 l/m 2 min 0 min 864 W/m 6,3 km/h (2 Bft)
11.07.2015 12:20 27,1 C 31,1 C 45 % 0 lf 1014,2 hPa 0,0 l/m 2 min 0 min 849 W/m 10,5 km/h (2 Bft)
11.07.2015 12:22 27,2 C 31,1 C 45 % 0 lf 1014,2 hPa 0,0 l/m 2 min 0 min 795 W/m 12,6 km/h (3 Bft)
11.07.2015 12:24 27,3 C 31,1 C 45 % 0 lf 1014,3 hPa 0,0 l/m 0 min 0 min 172 W/m 14,6 km/h (3 Bft)
11.07.2015 12:26 27,4 C 30,6 C 46 % 0 lf 1014,2 hPa 0,0 l/m 0 min 0 min 300 W/m 12,6 km/h (3 Bft)
11.07.2015 12:28 27,4 C 30,6 C 43 % 0 lf 1014,3 hPa 0,0 l/m 2 min 0 min 873 W/m 6,3 km/h (2 Bft)
11.07.2015 12:30 27,6 C 31,1 C 47 % 0 lf 1014,2 hPa 0,0 l/m 2 min 0 min 870 W/m 4,2 km/h (1 Bft)
11.07.2015 12:32 27,7 C 31,7 C 44 % 0 lf 1014,2 hPa 0,0 l/m 2 min 0 min 875 W/m 4,2 km/h (1 Bft)
11.07.2015 12:34 27,8 C 31,1 C 44 % 0 lf 1014,1 hPa 0,0 l/m 2 min 0 min 876 W/m 10,5 km/h (2 Bft)
11.07.2015 12:36 27,9 C 31,1 C 45 % 0 lf 1014,2 hPa 0,0 l/m 2 min 0 min 881 W/m 12,6 km/h (3 Bft)
11.07.2015 12:38 28,0 C 30,6 C 45 % 0 lf 1014,3 hPa 0,0 l/m 2 min 0 min 876 W/m 8,4 km/h (2 Bft)
11.07.2015 12:40 28,2 C 30,0 C 45 % 0 lf 1014,2 hPa 0,0 l/m 2 min 0 min 876 W/m 10,5 km/h (2 Bft)
11.07.2015 12:42 28,2 C 30,0 C 43 % 0 lf 1014,2 hPa 0,0 l/m 2 min 0 min 878 W/m 16,7 km/h (3 Bft)
11.07.2015 12:44 28,3 C 29,4 C 42 % 0 lf 1014,2 hPa 0,0 l/m 2 min 0 min 887 W/m 12,6 km/h (3 Bft)
11.07.2015 12:46 28,3 C 30,0 C 42 % 0 lf 1014,1 hPa 0,0 l/m 2 min 0 min 894 W/m 6,3 km/h (2 Bft)
11.07.2015 12:48 28,4 C 30,0 C 41 % 0 lf 1014,1 hPa 0,0 l/m 2 min 0 min 891 W/m 6,3 km/h (2 Bft)
11.07.2015 12:50 28,3 C 29,4 C 39 % 0 lf 1014,1 hPa 0,0 l/m 2 min 0 min 887 W/m 6,3 km/h (2 Bft)
11.07.2015 12:52 28,4 C 28,9 C 41 % 0 lf 1014,0 hPa 0,0 l/m 2 min 0 min 888 W/m 6,3 km/h (2 Bft)
11.07.2015 12:54 28,3 C 28,3 C 40 % 0 lf 1013,9 hPa 0,0 l/m 2 min 0 min 890 W/m 8,4 km/h (2 Bft)
11.07.2015 12:56 28,4 C 28,3 C 43 % 0 lf 1014,0 hPa 0,0 l/m 2 min 0 min 892 W/m 4,2 km/h (1 Bft)
11.07.2015 12:58 28,5 C 27,8 C 44 % 0 lf 1013,9 hPa 0,0 l/m 2 min 0 min 895 W/m 8,4 km/h (2 Bft)
11.07.2015 13:00 28,7 C 27,8 C 44 % 0 lf 1014,0 hPa 0,0 l/m 2 min 0 min 898 W/m 10,5 km/h (2 Bft)
11.07.2015 13:02 28,8 C 27,8 C 44 % 0 lf 1014,0 hPa 0,0 l/m 2 min 0 min 900 W/m 6,3 km/h (2 Bft)
11.07.2015 13:04 28,9 C 27,2 C 40 % 0 lf 1014,1 hPa 0,0 l/m 2 min 0 min 902 W/m 8,4 km/h (2 Bft)
11.07.2015 13:06 29,1 C 27,2 C 41 % 0 lf 1014,0 hPa 0,0 l/m 2 min 0 min 899 W/m 8,4 km/h (2 Bft)
11.07.2015 13:08 29,1 C 26,7 C 39 % 0 lf 1013,9 hPa 0,0 l/m 2 min 0 min 903 W/m 8,4 km/h (2 Bft)
11.07.2015 13:10 29,2 C 27,2 C 40 % 0 lf 1013,8 hPa 0,0 l/m 2 min 0 min 907 W/m 8,4 km/h (2 Bft)
11.07.2015 13:12 29,2 C 27,2 C 41 % 0 lf 1013,9 hPa 0,0 l/m 2 min 0 min 907 W/m 8,4 km/h (2 Bft)
11.07.2015 13:14 29,3 C 27,8 C 41 % 0 lf 1013,9 hPa 0,0 l/m 2 min 0 min 907 W/m 8,4 km/h (2 Bft)
11.07.2015 13:16 29,4 C 28,3 C 37 % 0 lf 1013,9 hPa 0,0 l/m 2 min 0 min 913 W/m 10,5 km/h (2 Bft)
11.07.2015 13:18 29,4 C 29,4 C 39 % 0 lf 1014,0 hPa 0,0 l/m 2 min 0 min 912 W/m 6,3 km/h (2 Bft)
11.07.2015 13:20 29,5 C 30,0 C 40 % 0 lf 1014,0 hPa 0,0 l/m 2 min 0 min 913 W/m 8,4 km/h (2 Bft)
11.07.2015 13:22 29,5 C 28,9 C 38 % 0 lf 1014,1 hPa 0,0 l/m 2 min 0 min 905 W/m 12,6 km/h (3 Bft)
11.07.2015 13:24 29,5 C 28,9 C 39 % 0 lf 1014,2 hPa 0,0 l/m 2 min 0 min 904 W/m 14,6 km/h (3 Bft)
11.07.2015 13:26 29,4 C 27,8 C 38 % 0 lf 1014,2 hPa 0,0 l/m 2 min 0 min 903 W/m 12,6 km/h (3 Bft)
11.07.2015 13:28 29,4 C 27,2 C 37 % 0 lf 1014,2 hPa 0,0 l/m 2 min 0 min 903 W/m 8,4 km/h (2 Bft)
11.07.2015 13:30 29,4 C 26,7 C 37 % 0 lf 1014,2 hPa 0,0 l/m 2 min 0 min 904 W/m 8,4 km/h (2 Bft)
11.07.2015 13:32 29,3 C 26,7 C 37 % 0 lf 1014,1 hPa 0,0 l/m 2 min 0 min 904 W/m 10,5 km/h (2 Bft)
11.07.2015 13:34 29,3 C 26,7 C 38 % 0 lf 1014,2 hPa 0,0 l/m 2 min 0 min 907 W/m 8,4 km/h (2 Bft)
11.07.2015 13:36 29,3 C 26,7 C 40 % 0 lf 1014,2 hPa 0,0 l/m 2 min 0 min 906 W/m 6,3 km/h (2 Bft)
11.07.2015 13:38 29,3 C 27,2 C 41 % 0 lf 1014,1 hPa 0,0 l/m 2 min 0 min 881 W/m 6,3 km/h (2 Bft)
11.07.2015 13:40 29,4 C 27,2 C 39 % 0 lf 1014,2 hPa 0,0 l/m 2 min 0 min 873 W/m 18,8 km/h (3 Bft)
11.07.2015 13:42 29,3 C 27,2 C 38 % 0 lf 1014,1 hPa 0,0 l/m 2 min 0 min 903 W/m 14,6 km/h (3 Bft)
11.07.2015 13:44 29,3 C 26,7 C 36 % 0 lf 1014,1 hPa 0,0 l/m 2 min 0 min 920 W/m 12,6 km/h (3 Bft)
11.07.2015 13:46 29,3 C 26,7 C 36 % 0 lf 1014,1 hPa 0,0 l/m 2 min 0 min 937 W/m 12,6 km/h (3 Bft)
11.07.2015 13:48 29,3 C 26,7 C 38 % 0 lf 1014,1 hPa 0,0 l/m 2 min 0 min 942 W/m 12,6 km/h (3 Bft)
11.07.2015 13:50 29,2 C 26,7 C 37 % 0 lf 1014,1 hPa 0,0 l/m 2 min 0 min 942 W/m 14,6 km/h (3 Bft)
11.07.2015 13:52 29,2 C 26,7 C 36 % 0 lf 1014,1 hPa 0,0 l/m 2 min 0 min 942 W/m 20,9 km/h (4 Bft)
11.07.2015 13:54 29,2 C 26,7 C 36 % 0 lf 1014,1 hPa 0,0 l/m 2 min 0 min 917 W/m 10,5 km/h (2 Bft)
11.07.2015 13:56 29,2 C 26,7 C 36 % 0 lf 1014,1 hPa 0,0 l/m 2 min 0 min 899 W/m 10,5 km/h (2 Bft)
11.07.2015 13:58 29,2 C 26,7 C 39 % 0 lf 1014,1 hPa 0,0 l/m 2 min 0 min 895 W/m 14,6 km/h (3 Bft)
11.07.2015 14:00 29,2 C 27,2 C 38 % 0 lf 1014,2 hPa 0,0 l/m 2 min 0 min 895 W/m 12,6 km/h (3 Bft)
11.07.2015 14:02 29,3 C 27,2 C 38 % 0 lf 1014,1 hPa 0,0 l/m 2 min 0 min 895 W/m 18,8 km/h (3 Bft)
11.07.2015 14:04 29,3 C 27,2 C 39 % 0 lf 1014,2 hPa 0,0 l/m 2 min 0 min 889 W/m 12,6 km/h (3 Bft)
11.07.2015 14:06 29,5 C 27,8 C 38 % 0 lf 1014,2 hPa 0,0 l/m 2 min 0 min 893 W/m 10,5 km/h (2 Bft)
11.07.2015 14:08 29,6 C 27,8 C 37 % 0 lf 1014,2 hPa 0,0 l/m 2 min 0 min 892 W/m 12,6 km/h (3 Bft)
11.07.2015 14:10 29,7 C 27,2 C 37 % 0 lf 1014,1 hPa 0,0 l/m 2 min 0 min 889 W/m 12,6 km/h (3 Bft)
11.07.2015 14:12 29,8 C 27,2 C 37 % 0 lf 1014,1 hPa 0,0 l/m 2 min 0 min 890 W/m 12,6 km/h (3 Bft)
11.07.2015 14:14 29,9 C 27,2 C 38 % 0 lf 1014,2 hPa 0,0 l/m 2 min 0 min 885 W/m 14,6 km/h (3 Bft)
11.07.2015 14:16 30,0 C 27,2 C 37 % 0 lf 1014,2 hPa 0,0 l/m 2 min 0 min 886 W/m 12,6 km/h (3 Bft)
11.07.2015 14:18 30,0 C 27,2 C 35 % 0 lf 1014,2 hPa 0,0 l/m 2 min 0 min 882 W/m 12,6 km/h (3 Bft)
11.07.2015 14:20 29,9 C 27,2 C 36 % 0 lf 1014,2 hPa 0,0 l/m 2 min 0 min 881 W/m 12,6 km/h (3 Bft)
11.07.2015 14:22 30,0 C 27,2 C 39 % 0 lf 1014,2 hPa 0,0 l/m 2 min 0 min 881 W/m 6,3 km/h (2 Bft)
11.07.2015 14:24 30,0 C 27,2 C 36 % 0 lf 1014,2 hPa 0,0 l/m 2 min 0 min 881 W/m 8,4 km/h (2 Bft)
11.07.2015 14:26 30,1 C 27,2 C 37 % 0 lf 1014,2 hPa 0,0 l/m 2 min 0 min 878 W/m 16,7 km/h (3 Bft)
11.07.2015 14:28 30,2 C 27,8 C 37 % 0 lf 1014,2 hPa 0,0 l/m 2 min 0 min 877 W/m 20,9 km/h (4 Bft)
11.07.2015 14:30 30,2 C 27,8 C 37 % 0 lf 1014,2 hPa 0,0 l/m 2 min 0 min 872 W/m 8,4 km/h (2 Bft)
11.07.2015 14:32 30,3 C 27,8 C 41 % 0 lf 1014,2 hPa 0,0 l/m 2 min 0 min 855 W/m 12,6 km/h (3 Bft)
11.07.2015 14:34 30,3 C 27,8 C 38 % 0 lf 1014,2 hPa 0,0 l/m 2 min 0 min 861 W/m 12,6 km/h (3 Bft)
11.07.2015 14:36 30,4 C 28,3 C 40 % 0 lf 1014,2 hPa 0,0 l/m 2 min 0 min 871 W/m 16,7 km/h (3 Bft)
11.07.2015 14:38 30,5 C 28,3 C 40 % 0 lf 1014,2 hPa 0,0 l/m 2 min 0 min 874 W/m 14,6 km/h (3 Bft)
11.07.2015 14:40 30,6 C 28,3 C 39 % 0 lf 1014,2 hPa 0,0 l/m 2 min 0 min 870 W/m 16,7 km/h (3 Bft)
11.07.2015 14:42 30,7 C 28,3 C 38 % 0 lf 1014,3 hPa 0,0 l/m 2 min 0 min 869 W/m 16,7 km/h (3 Bft)
11.07.2015 14:44 30,8 C 28,3 C 38 % 0 lf 1014,3 hPa 0,0 l/m 2 min 0 min 868 W/m 18,8 km/h (3 Bft)
11.07.2015 14:46 30,9 C 28,3 C 38 % 0 lf 1014,3 hPa 0,0 l/m 2 min 0 min 869 W/m 16,7 km/h (3 Bft)
11.07.2015 14:48 31,0 C 28,3 C 35 % 0 lf 1014,3 hPa 0,0 l/m 2 min 0 min 865 W/m 10,5 km/h (2 Bft)
11.07.2015 14:50 31,1 C 28,3 C 35 % 0 lf 1014,2 hPa 0,0 l/m 2 min 0 min 859 W/m 4,2 km/h (1 Bft)
11.07.2015 14:52 31,1 C 27,8 C 34 % 0 lf 1014,3 hPa 0,0 l/m 2 min 0 min 857 W/m 10,5 km/h (2 Bft)
11.07.2015 14:54 31,1 C 27,8 C 34 % 0 lf 1014,3 hPa 0,0 l/m 2 min 0 min 854 W/m 14,6 km/h (3 Bft)
11.07.2015 14:56 31,1 C 27,8 C 38 % 0 lf 1014,2 hPa 0,0 l/m 2 min 0 min 858 W/m 16,7 km/h (3 Bft)
11.07.2015 14:58 31,1 C 27,8 C 36 % 0 lf 1014,2 hPa 0,0 l/m 2 min 0 min 856 W/m 10,5 km/h (2 Bft)
11.07.2015 15:00 31,1 C 27,8 C 34 % 0 lf 1014,2 hPa 0,0 l/m 2 min 0 min 849 W/m 10,5 km/h (2 Bft)
11.07.2015 15:02 31,1 C 27,8 C 35 % 0 lf 1014,2 hPa 0,0 l/m 2 min 0 min 840 W/m 10,5 km/h (2 Bft)
11.07.2015 15:04 31,1 C 27,8 C 36 % 0 lf 1014,2 hPa 0,0 l/m 2 min 0 min 798 W/m 8,4 km/h (2 Bft)
11.07.2015 15:06 31,2 C 27,8 C 36 % 0 lf 1014,2 hPa 0,0 l/m 2 min 0 min 780 W/m 4,2 km/h (1 Bft)
11.07.2015 15:08 31,2 C 28,3 C 36 % 0 lf 1014,2 hPa 0,0 l/m 2 min 0 min 798 W/m 14,6 km/h (3 Bft)
11.07.2015 15:10 31,3 C 28,3 C 38 % 0 lf 1014,2 hPa 0,0 l/m 2 min 0 min 751 W/m 12,6 km/h (3 Bft)
11.07.2015 15:12 31,3 C 28,3 C 37 % 0 lf 1014,3 hPa 0,0 l/m 2 min 0 min 819 W/m 10,5 km/h (2 Bft)
11.07.2015 15:14 31,4 C 28,3 C 35 % 0 lf 1014,3 hPa 0,0 l/m 2 min 0 min 842 W/m 12,6 km/h (3 Bft)
11.07.2015 15:16 31,4 C 28,3 C 36 % 0 lf 1014,3 hPa 0,0 l/m 2 min 0 min 817 W/m 16,7 km/h (3 Bft)
11.07.2015 15:18 31,4 C 28,3 C 34 % 0 lf 1014,4 hPa 0,0 l/m 2 min 0 min 804 W/m 10,5 km/h (2 Bft)
11.07.2015 15:20 31,4 C 28,3 C 35 % 0 lf 1014,4 hPa 0,0 l/m 2 min 0 min 814 W/m 16,7 km/h (3 Bft)
11.07.2015 15:22 31,4 C 28,3 C 34 % 0 lf 1014,3 hPa 0,0 l/m 2 min 0 min 819 W/m 20,9 km/h (4 Bft)
11.07.2015 15:24 31,4 C 28,3 C 35 % 0 lf 1014,4 hPa 0,0 l/m 2 min 0 min 832 W/m 20,9 km/h (4 Bft)
11.07.2015 15:26 31,4 C 28,3 C 35 % 0 lf 1014,3 hPa 0,0 l/m 2 min 0 min 825 W/m 18,8 km/h (3 Bft)
11.07.2015 15:28 31,4 C 28,3 C 34 % 0 lf 1014,3 hPa 0,0 l/m 2 min 0 min 722 W/m 16,7 km/h (3 Bft)
11.07.2015 15:30 31,4 C 28,3 C 33 % 0 lf 1014,4 hPa 0,0 l/m 2 min 0 min 720 W/m 10,5 km/h (2 Bft)
11.07.2015 15:32 31,4 C 28,3 C 34 % 0 lf 1014,4 hPa 0,0 l/m 2 min 0 min 663 W/m 14,6 km/h (3 Bft)
11.07.2015 15:34 31,4 C 28,3 C 33 % 0 lf 1014,4 hPa 0,0 l/m 2 min 0 min 718 W/m 14,6 km/h (3 Bft)
11.07.2015 15:36 31,4 C 28,3 C 36 % 0 lf 1014,4 hPa 0,0 l/m 2 min 0 min 760 W/m 20,9 km/h (4 Bft)
11.07.2015 15:38 31,4 C 28,3 C 35 % 0 lf 1014,4 hPa 0,0 l/m 2 min 0 min 784 W/m 14,6 km/h (3 Bft)
11.07.2015 15:40 31,4 C 28,3 C 36 % 0 lf 1014,4 hPa 0,0 l/m 2 min 0 min 750 W/m 8,4 km/h (2 Bft)
11.07.2015 15:42 31,4 C 28,3 C 36 % 0 lf 1014,4 hPa 0,0 l/m 2 min 0 min 746 W/m 12,6 km/h (3 Bft)
11.07.2015 15:44 31,4 C 28,3 C 36 % 0 lf 1014,4 hPa 0,0 l/m 2 min 0 min 802 W/m 16,7 km/h (3 Bft)
11.07.2015 15:46 31,6 C 28,9 C 36 % 0 lf 1014,4 hPa 0,0 l/m 2 min 0 min 743 W/m 12,6 km/h (3 Bft)
11.07.2015 15:48 31,6 C 28,9 C 35 % 0 lf 1014,4 hPa 0,0 l/m 2 min 0 min 744 W/m 14,6 km/h (3 Bft)
11.07.2015 15:50 31,6 C 28,3 C 34 % 0 lf 1014,4 hPa 0,0 l/m 2 min 0 min 792 W/m 16,7 km/h (3 Bft)
11.07.2015 15:52 31,6 C 28,9 C 36 % 0 lf 1014,4 hPa 0,0 l/m 2 min 0 min 806 W/m 20,9 km/h (4 Bft)
11.07.2015 15:54 31,7 C 28,9 C 34 % 0 lf 1014,5 hPa 0,0 l/m 2 min 0 min 800 W/m 18,8 km/h (3 Bft)
11.07.2015 15:56 31,7 C 28,9 C 34 % 0 lf 1014,4 hPa 0,0 l/m 2 min 0 min 804 W/m 14,6 km/h (3 Bft)
11.07.2015 15:58 31,7 C 28,9 C 34 % 0 lf 1014,4 hPa 0,0 l/m 2 min 0 min 804 W/m 14,6 km/h (3 Bft)
11.07.2015 16:00 31,7 C 28,9 C 36 % 0 lf 1014,3 hPa 0,0 l/m 2 min 0 min 751 W/m 20,9 km/h (4 Bft)
11.07.2015 16:02 31,8 C 28,9 C 36 % 0 lf 1014,4 hPa 0,0 l/m 2 min 0 min 586 W/m 14,6 km/h (3 Bft)
11.07.2015 16:04 31,8 C 28,9 C 36 % 0 lf 1014,4 hPa 0,0 l/m 2 min 0 min 589 W/m 18,8 km/h (3 Bft)
11.07.2015 16:06 31,8 C 28,9 C 36 % 0 lf 1014,4 hPa 0,0 l/m 2 min 0 min 620 W/m 18,8 km/h (3 Bft)
11.07.2015 16:08 31,8 C 28,9 C 36 % 0 lf 1014,5 hPa 0,0 l/m 2 min 0 min 773 W/m 18,8 km/h (3 Bft)
11.07.2015 16:10 31,7 C 28,9 C 35 % 0 lf 1014,5 hPa 0,0 l/m 2 min 0 min 767 W/m 18,8 km/h (3 Bft)
11.07.2015 16:12 31,7 C 28,9 C 35 % 0 lf 1014,5 hPa 0,0 l/m 2 min 0 min 732 W/m 23,0 km/h (4 Bft)
11.07.2015 16:14 31,7 C 28,9 C 36 % 0 lf 1014,5 hPa 0,0 l/m 2 min 0 min 729 W/m 20,9 km/h (4 Bft)
11.07.2015 16:16 31,7 C 28,9 C 36 % 0 lf 1014,5 hPa 0,0 l/m 2 min 0 min 687 W/m 16,7 km/h (3 Bft)
11.07.2015 16:18 31,7 C 30,0 C 36 % 0 lf 1014,5 hPa 0,0 l/m 2 min 0 min 712 W/m 18,8 km/h (3 Bft)
11.07.2015 16:20 31,7 C 30,6 C 37 % 0 lf 1014,5 hPa 0,0 l/m 2 min 0 min 716 W/m 20,9 km/h (4 Bft)
11.07.2015 16:22 31,7 C 30,0 C 36 % 0 lf 1014,5 hPa 0,0 l/m 2 min 0 min 724 W/m 14,6 km/h (3 Bft)
11.07.2015 16:24 31,7 C 30,0 C 35 % 0 lf 1014,5 hPa 0,0 l/m 2 min 0 min 693 W/m 10,5 km/h (2 Bft)
11.07.2015 16:26 31,7 C 30,6 C 34 % 0 lf 1014,5 hPa 0,0 l/m 2 min 0 min 594 W/m 10,5 km/h (2 Bft)
11.07.2015 16:28 31,7 C 30,6 C 34 % 0 lf 1014,5 hPa 0,0 l/m 2 min 0 min 567 W/m 14,6 km/h (3 Bft)
11.07.2015 16:30 31,6 C 31,1 C 35 % 0 lf 1014,6 hPa 0,0 l/m 2 min 0 min 549 W/m 18,8 km/h (3 Bft)
11.07.2015 16:32 31,5 C 31,1 C 33 % 0 lf 1014,6 hPa 0,0 l/m 2 min 0 min 642 W/m 12,6 km/h (3 Bft)
11.07.2015 16:34 31,4 C 31,1 C 34 % 0 lf 1014,4 hPa 0,0 l/m 2 min 0 min 641 W/m 8,4 km/h (2 Bft)
11.07.2015 16:36 31,4 C 30,0 C 36 % 0 lf 1014,4 hPa 0,0 l/m 2 min 0 min 638 W/m 10,5 km/h (2 Bft)
11.07.2015 16:38 31,4 C 29,4 C 36 % 0 lf 1014,4 hPa 0,0 l/m 2 min 0 min 664 W/m 8,4 km/h (2 Bft)
11.07.2015 16:40 31,4 C 28,9 C 34 % 0 lf 1014,4 hPa 0,0 l/m 2 min 0 min 661 W/m 10,5 km/h (2 Bft)
11.07.2015 16:42 31,4 C 28,9 C 34 % 0 lf 1014,5 hPa 0,0 l/m 2 min 0 min 625 W/m 16,7 km/h (3 Bft)
11.07.2015 16:44 31,4 C 28,3 C 38 % 0 lf 1014,4 hPa 0,0 l/m 2 min 0 min 652 W/m 10,5 km/h (2 Bft)
11.07.2015 16:46 31,4 C 28,9 C 38 % 0 lf 1014,4 hPa 0,0 l/m 2 min 0 min 673 W/m 10,5 km/h (2 Bft)
11.07.2015 16:48 31,4 C 28,3 C 37 % 0 lf 1014,4 hPa 0,0 l/m 2 min 0 min 652 W/m 12,6 km/h (3 Bft)
11.07.2015 16:50 31,4 C 28,9 C 37 % 0 lf 1014,4 hPa 0,0 l/m 2 min 0 min 646 W/m 6,3 km/h (2 Bft)
11.07.2015 16:52 31,6 C 28,9 C 37 % 0 lf 1014,3 hPa 0,0 l/m 2 min 0 min 629 W/m 27,2 km/h (4 Bft)
11.07.2015 16:54 31,6 C 28,3 C 35 % 0 lf 1014,2 hPa 0,0 l/m 2 min 0 min 617 W/m 16,7 km/h (3 Bft)
11.07.2015 16:56 31,5 C 28,3 C 35 % 0 lf 1014,3 hPa 0,0 l/m 2 min 0 min 597 W/m 14,6 km/h (3 Bft)
11.07.2015 16:58 31,5 C 28,3 C 35 % 0 lf 1014,3 hPa 0,0 l/m 2 min 0 min 598 W/m 16,7 km/h (3 Bft)
11.07.2015 17:00 31,4 C 28,3 C 37 % 0 lf 1014,4 hPa 0,0 l/m 2 min 0 min 535 W/m 16,7 km/h (3 Bft)
11.07.2015 17:02 31,4 C 28,3 C 37 % 0 lf 1014,3 hPa 0,0 l/m 2 min 0 min 594 W/m 14,6 km/h (3 Bft)
11.07.2015 17:04 31,4 C 28,3 C 36 % 0 lf 1014,3 hPa 0,0 l/m 2 min 0 min 578 W/m 12,6 km/h (3 Bft)
11.07.2015 17:06 31,4 C 28,3 C 35 % 0 lf 1014,3 hPa 0,0 l/m 2 min 0 min 587 W/m 12,6 km/h (3 Bft)
11.07.2015 17:08 31,4 C 28,3 C 38 % 0 lf 1014,3 hPa 0,0 l/m 2 min 0 min 604 W/m 14,6 km/h (3 Bft)
11.07.2015 17:10 31,4 C 28,3 C 36 % 0 lf 1014,3 hPa 0,0 l/m 2 min 0 min 631 W/m 10,5 km/h (2 Bft)
11.07.2015 17:12 31,4 C 28,3 C 35 % 0 lf 1014,3 hPa 0,0 l/m 2 min 0 min 592 W/m 10,5 km/h (2 Bft)
11.07.2015 17:14 31,5 C 27,8 C 36 % 0 lf 1014,3 hPa 0,0 l/m 2 min 0 min 577 W/m 12,6 km/h (3 Bft)
11.07.2015 17:16 31,5 C 27,8 C 35 % 0 lf 1014,3 hPa 0,0 l/m 2 min 0 min 570 W/m 10,5 km/h (2 Bft)
11.07.2015 17:18 31,5 C 27,8 C 35 % 0 lf 1014,3 hPa 0,0 l/m 2 min 0 min 535 W/m 10,5 km/h (2 Bft)
11.07.2015 17:20 31,5 C 27,8 C 36 % 0 lf 1014,1 hPa 0,0 l/m 2 min 0 min 577 W/m 8,4 km/h (2 Bft)
11.07.2015 17:22 31,5 C 27,8 C 36 % 0 lf 1014,2 hPa 0,0 l/m 2 min 0 min 541 W/m 8,4 km/h (2 Bft)
11.07.2015 17:24 31,4 C 27,8 C 36 % 0 lf 1014,1 hPa 0,0 l/m 2 min 0 min 472 W/m 10,5 km/h (2 Bft)
11.07.2015 17:26 31,4 C 27,8 C 36 % 0 lf 1014,2 hPa 0,0 l/m 2 min 0 min 525 W/m 12,6 km/h (3 Bft)
11.07.2015 17:28 31,4 C 27,8 C 36 % 0 lf 1014,2 hPa 0,0 l/m 2 min 0 min 538 W/m 12,6 km/h (3 Bft)
11.07.2015 17:30 31,3 C 27,8 C 36 % 0 lf 1014,2 hPa 0,0 l/m 2 min 0 min 496 W/m 14,6 km/h (3 Bft)
11.07.2015 17:32 31,3 C 27,8 C 37 % 0 lf 1014,1 hPa 0,0 l/m 2 min 0 min 482 W/m 16,7 km/h (3 Bft)
11.07.2015 17:34 31,2 C 27,8 C 37 % 0 lf 1014,1 hPa 0,0 l/m 2 min 0 min 513 W/m 20,9 km/h (4 Bft)
11.07.2015 17:36 31,2 C 27,2 C 37 % 0 lf 1014,2 hPa 0,0 l/m 2 min 0 min 502 W/m 12,6 km/h (3 Bft)
11.07.2015 17:38 31,2 C 27,8 C 35 % 0 lf 1014,3 hPa 0,0 l/m 2 min 0 min 495 W/m 16,7 km/h (3 Bft)
11.07.2015 17:40 31,1 C 27,2 C 34 % 0 lf 1014,2 hPa 0,0 l/m 2 min 0 min 509 W/m 20,9 km/h (4 Bft)
11.07.2015 17:42 31,1 C 27,2 C 35 % 0 lf 1014,2 hPa 0,0 l/m 2 min 0 min 459 W/m 18,8 km/h (3 Bft)
11.07.2015 17:44 31,0 C 27,2 C 35 % 0 lf 1014,2 hPa 0,0 l/m 2 min 0 min 495 W/m 14,6 km/h (3 Bft)
11.07.2015 17:46 30,9 C 27,2 C 35 % 0 lf 1014,3 hPa 0,0 l/m 2 min 0 min 473 W/m 23,0 km/h (4 Bft)
11.07.2015 17:48 30,9 C 27,2 C 35 % 0 lf 1014,3 hPa 0,0 l/m 2 min 0 min 482 W/m 16,7 km/h (3 Bft)
11.07.2015 17:50 30,9 C 27,2 C 36 % 0 lf 1014,4 hPa 0,0 l/m 2 min 0 min 482 W/m 25,1 km/h (4 Bft)
11.07.2015 17:52 30,8 C 27,2 C 36 % 0 lf 1014,2 hPa 0,0 l/m 2 min 0 min 460 W/m 20,9 km/h (4 Bft)
11.07.2015 17:54 30,8 C 27,2 C 36 % 0 lf 1014,3 hPa 0,0 l/m 2 min 0 min 448 W/m 14,6 km/h (3 Bft)
11.07.2015 17:56 30,7 C 27,2 C 35 % 0 lf 1014,3 hPa 0,0 l/m 2 min 0 min 441 W/m 16,7 km/h (3 Bft)
11.07.2015 17:58 30,6 C 26,7 C 37 % 0 lf 1014,3 hPa 0,0 l/m 2 min 0 min 456 W/m 23,0 km/h (4 Bft)
11.07.2015 18:00 30,6 C 26,7 C 36 % 0 lf 1014,3 hPa 0,0 l/m 2 min 0 min 441 W/m 35,6 km/h (5 Bft)
11.07.2015 18:02 30,4 C 26,7 C 36 % 0 lf 1014,3 hPa 0,0 l/m 2 min 0 min 404 W/m 18,8 km/h (3 Bft)
11.07.2015 18:05 30,4 C 26,7 C 36 % 0 lf 1014,3 hPa 0,0 l/m 2 min 0 min 482 W/m 23,0 km/h (4 Bft)
11.07.2015 18:08 30,3 C 26,7 C 36 % 0 lf 1014,4 hPa 0,0 l/m 2 min 0 min 438 W/m 23,0 km/h (4 Bft)
11.07.2015 18:10 30,2 C 26,7 C 36 % 0 lf 1014,4 hPa 0,0 l/m 2 min 0 min 436 W/m 20,9 km/h (4 Bft)
11.07.2015 18:12 30,2 C 26,7 C 36 % 0 lf 1014,4 hPa 0,0 l/m 2 min 0 min 423 W/m 18,8 km/h (3 Bft)
11.07.2015 18:14 30,1 C 26,7 C 35 % 0 lf 1014,4 hPa 0,0 l/m 2 min 0 min 439 W/m 14,6 km/h (3 Bft)
11.07.2015 18:16 30,1 C 26,7 C 36 % 0 lf 1014,3 hPa 0,0 l/m 2 min 0 min 437 W/m 14,6 km/h (3 Bft)
11.07.2015 18:18 30,1 C 26,7 C 36 % 0 lf 1014,3 hPa 0,0 l/m 2 min 0 min 428 W/m 14,6 km/h (3 Bft)
11.07.2015 18:20 30,1 C 26,1 C 36 % 0 lf 1014,4 hPa 0,0 l/m 2 min 0 min 424 W/m 25,1 km/h (4 Bft)
11.07.2015 18:22 30,0 C 26,7 C 36 % 0 lf 1014,3 hPa 0,0 l/m 2 min 0 min 393 W/m 16,7 km/h (3 Bft)
11.07.2015 18:24 29,9 C 26,7 C 37 % 0 lf 1014,2 hPa 0,0 l/m 2 min 0 min 367 W/m 27,2 km/h (4 Bft)
11.07.2015 18:26 29,9 C 26,1 C 37 % 0 lf 1014,4 hPa 0,0 l/m 2 min 0 min 379 W/m 18,8 km/h (3 Bft)
11.07.2015 18:28 29,8 C 26,1 C 37 % 0 lf 1014,3 hPa 0,0 l/m 2 min 0 min 375 W/m 20,9 km/h (4 Bft)
11.07.2015 18:30 29,8 C 26,1 C 36 % 0 lf 1014,2 hPa 0,0 l/m 2 min 0 min 387 W/m 23,0 km/h (4 Bft)
11.07.2015 18:32 29,8 C 26,1 C 37 % 0 lf 1014,3 hPa 0,0 l/m 2 min 0 min 374 W/m 10,5 km/h (2 Bft)
11.07.2015 18:34 29,8 C 26,1 C 37 % 0 lf 1014,3 hPa 0,0 l/m 2 min 0 min 345 W/m 14,6 km/h (3 Bft)
11.07.2015 18:36 29,7 C 26,1 C 38 % 0 lf 1014,2 hPa 0,0 l/m 2 min 0 min 366 W/m 12,6 km/h (3 Bft)
11.07.2015 18:38 29,7 C 26,1 C 38 % 0 lf 1014,3 hPa 0,0 l/m 2 min 0 min 361 W/m 10,5 km/h (2 Bft)
11.07.2015 18:40 29,7 C 26,1 C 38 % 0 lf 1014,3 hPa 0,0 l/m 2 min 0 min 362 W/m 16,7 km/h (3 Bft)
11.07.2015 18:42 29,6 C 26,1 C 37 % 0 lf 1014,3 hPa 0,0 l/m 2 min 0 min 350 W/m 20,9 km/h (4 Bft)
11.07.2015 18:44 29,6 C 26,1 C 37 % 0 lf 1014,4 hPa 0,0 l/m 2 min 0 min 315 W/m 18,8 km/h (3 Bft)
11.07.2015 18:46 29,5 C 26,1 C 38 % 0 lf 1014,4 hPa 0,0 l/m 2 min 0 min 303 W/m 16,7 km/h (3 Bft)
11.07.2015 18:48 29,4 C 26,1 C 38 % 0 lf 1014,4 hPa 0,0 l/m 2 min 0 min 292 W/m 18,8 km/h (3 Bft)
11.07.2015 18:50 29,4 C 25,6 C 40 % 0 lf 1014,5 hPa 0,0 l/m 2 min 0 min 275 W/m 29,3 km/h (5 Bft)
11.07.2015 18:52 29,3 C 25,6 C 43 % 0 lf 1014,5 hPa 0,0 l/m 2 min 0 min 262 W/m 35,6 km/h (5 Bft)
11.07.2015 18:54 29,2 C 25,6 C 43 % 0 lf 1014,5 hPa 0,0 l/m 2 min 0 min 240 W/m 25,1 km/h (4 Bft)
11.07.2015 18:56 29,2 C 25,6 C 43 % 0 lf 1014,5 hPa 0,0 l/m 2 min 0 min 252 W/m 37,7 km/h (5 Bft)
11.07.2015 18:58 29,2 C 25,6 C 44 % 0 lf 1014,5 hPa 0,0 l/m 2 min 0 min 259 W/m 20,9 km/h (4 Bft)
11.07.2015 19:00 29,1 C 25,6 C 44 % 0 lf 1014,6 hPa 0,0 l/m 2 min 0 min 286 W/m 35,6 km/h (5 Bft)
11.07.2015 19:02 29,0 C 25,6 C 45 % 0 lf 1014,6 hPa 0,0 l/m 2 min 0 min 303 W/m 27,2 km/h (4 Bft)
11.07.2015 19:04 28,9 C 25,6 C 45 % 0 lf 1014,5 hPa 0,0 l/m 2 min 0 min 302 W/m 20,9 km/h (4 Bft)
11.07.2015 19:06 28,9 C 25,6 C 46 % 0 lf 1014,5 hPa 0,0 l/m 2 min 0 min 287 W/m 23,0 km/h (4 Bft)
11.07.2015 19:08 28,8 C 25,6 C 45 % 0 lf 1014,5 hPa 0,0 l/m 2 min 0 min 282 W/m 23,0 km/h (4 Bft)
11.07.2015 19:10 28,7 C 25,6 C 46 % 0 lf 1014,5 hPa 0,0 l/m 2 min 0 min 289 W/m 27,2 km/h (4 Bft)
11.07.2015 19:12 28,7 C 25,6 C 45 % 0 lf 1014,5 hPa 0,0 l/m 2 min 0 min 232 W/m 25,1 km/h (4 Bft)
11.07.2015 19:14 28,6 C 25,6 C 45 % 0 lf 1014,5 hPa 0,0 l/m 2 min 0 min 198 W/m 25,1 km/h (4 Bft)
11.07.2015 19:16 28,6 C 25,0 C 46 % 0 lf 1014,7 hPa 0,0 l/m 2 min 0 min 182 W/m 16,7 km/h (3 Bft)
11.07.2015 19:18 28,5 C 25,0 C 45 % 0 lf 1014,6 hPa 0,0 l/m 2 min 0 min 193 W/m 27,2 km/h (4 Bft)
11.07.2015 19:20 28,3 C 25,0 C 43 % 0 lf 1014,8 hPa 0,0 l/m 2 min 0 min 201 W/m 35,6 km/h (5 Bft)
11.07.2015 19:22 28,3 C 25,0 C 43 % 0 lf 1014,7 hPa 0,0 l/m 2 min 0 min 196 W/m 20,9 km/h (4 Bft)
11.07.2015 19:24 28,2 C 24,4 C 43 % 0 lf 1014,8 hPa 0,0 l/m 2 min 0 min 184 W/m 25,1 km/h (4 Bft)
11.07.2015 19:26 28,1 C 24,4 C 43 % 0 lf 1014,8 hPa 0,0 l/m 2 min 0 min 176 W/m 20,9 km/h (4 Bft)
11.07.2015 19:28 28,0 C 24,4 C 43 % 0 lf 1014,8 hPa 0,0 l/m 2 min 0 min 174 W/m 20,9 km/h (4 Bft)
11.07.2015 19:30 27,9 C 24,4 C 43 % 0 lf 1014,9 hPa 0,0 l/m 2 min 0 min 162 W/m 18,8 km/h (3 Bft)
11.07.2015 19:32 27,8 C 24,4 C 43 % 0 lf 1014,9 hPa 0,0 l/m 2 min 0 min 161 W/m 23,0 km/h (4 Bft)
11.07.2015 19:34 27,7 C 24,4 C 43 % 0 lf 1014,9 hPa 0,0 l/m 2 min 0 min 168 W/m 23,0 km/h (4 Bft)
11.07.2015 19:36 27,7 C 24,4 C 44 % 0 lf 1014,9 hPa 0,0 l/m 2 min 0 min 179 W/m 25,1 km/h (4 Bft)
11.07.2015 19:38 27,6 C 24,4 C 44 % 0 lf 1014,9 hPa 0,0 l/m 2 min 0 min 176 W/m 20,9 km/h (4 Bft)
11.07.2015 19:40 27,6 C 24,4 C 44 % 0 lf 1014,9 hPa 0,0 l/m 2 min 0 min 205 W/m 20,9 km/h (4 Bft)
11.07.2015 19:42 27,5 C 24,4 C 44 % 0 lf 1014,9 hPa 0,0 l/m 2 min 0 min 175 W/m 27,2 km/h (4 Bft)
11.07.2015 19:44 27,4 C 24,4 C 45 % 0 lf 1015,0 hPa 0,0 l/m 2 min 0 min 202 W/m 20,9 km/h (4 Bft)
11.07.2015 19:46 27,4 C 24,4 C 45 % 0 lf 1015,0 hPa 0,0 l/m 2 min 0 min 187 W/m 23,0 km/h (4 Bft)
11.07.2015 19:48 27,3 C 24,4 C 45 % 0 lf 1015,1 hPa 0,0 l/m 2 min 0 min 168 W/m 25,1 km/h (4 Bft)
11.07.2015 19:50 27,3 C 24,4 C 46 % 0 lf 1015,1 hPa 0,0 l/m 2 min 0 min 160 W/m 20,9 km/h (4 Bft)
11.07.2015 19:52 27,2 C 24,4 C 46 % 0 lf 1015,2 hPa 0,0 l/m 2 min 0 min 162 W/m 27,2 km/h (4 Bft)
11.07.2015 19:54 27,1 C 23,9 C 46 % 0 lf 1015,2 hPa 0,0 l/m 2 min 0 min 135 W/m 27,2 km/h (4 Bft)
11.07.2015 19:56 27,1 C 23,9 C 47 % 0 lf 1015,1 hPa 0,0 l/m 2 min 0 min 139 W/m 23,0 km/h (4 Bft)
11.07.2015 19:58 27,0 C 23,9 C 48 % 0 lf 1015,2 hPa 0,0 l/m 2 min 0 min 133 W/m 16,7 km/h (3 Bft)
11.07.2015 20:00 26,9 C 23,9 C 47 % 0 lf 1015,2 hPa 0,0 l/m 2 min 0 min 144 W/m 29,3 km/h (5 Bft)
11.07.2015 20:02 26,9 C 23,9 C 47 % 0 lf 1015,2 hPa 0,0 l/m 2 min 0 min 154 W/m 23,0 km/h (4 Bft)
11.07.2015 20:04 26,8 C 23,9 C 48 % 0 lf 1015,2 hPa 0,0 l/m 2 min 0 min 164 W/m 16,7 km/h (3 Bft)
11.07.2015 20:06 26,7 C 23,3 C 48 % 0 lf 1015,2 hPa 0,0 l/m 2 min 0 min 159 W/m 27,2 km/h (4 Bft)
11.07.2015 20:08 26,7 C 23,3 C 48 % 0 lf 1015,3 hPa 0,0 l/m 2 min 0 min 155 W/m 27,2 km/h (4 Bft)
11.07.2015 20:10 26,6 C 23,3 C 48 % 0 lf 1015,3 hPa 0,0 l/m 2 min 0 min 154 W/m 23,0 km/h (4 Bft)
11.07.2015 20:12 26,6 C 23,3 C 48 % 0 lf 1015,4 hPa 0,0 l/m 2 min 0 min 140 W/m 20,9 km/h (4 Bft)
11.07.2015 20:14 26,5 C 23,3 C 48 % 0 lf 1015,5 hPa 0,0 l/m 2 min 0 min 141 W/m 25,1 km/h (4 Bft)
11.07.2015 20:16 26,4 C 23,3 C 48 % 0 lf 1015,5 hPa 0,0 l/m 2 min 0 min 136 W/m 25,1 km/h (4 Bft)
11.07.2015 20:18 26,3 C 23,3 C 48 % 0 lf 1015,5 hPa 0,0 l/m 2 min 0 min 133 W/m 16,7 km/h (3 Bft)
11.07.2015 20:20 26,3 C 23,3 C 49 % 0 lf 1015,5 hPa 0,0 l/m 2 min 0 min 118 W/m 29,3 km/h (5 Bft)
11.07.2015 20:22 26,2 C 23,3 C 48 % 0 lf 1015,5 hPa 0,0 l/m 2 min 0 min 103 W/m 29,3 km/h (5 Bft)
11.07.2015 20:24 26,1 C 22,8 C 48 % 0 lf 1015,5 hPa 0,0 l/m 2 min 0 min 98 W/m 23,0 km/h (4 Bft)
11.07.2015 20:26 26,1 C 22,8 C 48 % 0 lf 1015,6 hPa 0,0 l/m 2 min 0 min 88 W/m 25,1 km/h (4 Bft)
11.07.2015 20:28 26,0 C 22,8 C 48 % 0 lf 1015,6 hPa 0,0 l/m 2 min 0 min 84 W/m 25,1 km/h (4 Bft)
11.07.2015 20:30 25,9 C 22,8 C 48 % 0 lf 1015,7 hPa 0,0 l/m 0 min 0 min 74 W/m 16,7 km/h (3 Bft)
11.07.2015 20:32 25,8 C 22,8 C 48 % 0 lf 1015,7 hPa 0,0 l/m 0 min 0 min 70 W/m 23,0 km/h (4 Bft)
11.07.2015 20:34 25,7 C 22,2 C 49 % 0 lf 1015,7 hPa 0,0 l/m 0 min 0 min 64 W/m 25,1 km/h (4 Bft)
11.07.2015 20:36 25,7 C 22,2 C 50 % 0 lf 1015,8 hPa 0,0 l/m 0 min 0 min 55 W/m 23,0 km/h (4 Bft)
11.07.2015 20:38 25,6 C 22,2 C 50 % 0 lf 1015,8 hPa 0,0 l/m 0 min 0 min 52 W/m 23,0 km/h (4 Bft)
11.07.2015 20:40 25,4 C 22,2 C 50 % 0 lf 1015,8 hPa 0,0 l/m 0 min 0 min 49 W/m 14,6 km/h (3 Bft)
11.07.2015 20:42 25,4 C 21,7 C 50 % 0 lf 1015,8 hPa 0,0 l/m 0 min 0 min 45 W/m 23,0 km/h (4 Bft)
11.07.2015 20:44 25,2 C 21,7 C 51 % 0 lf 1015,8 hPa 0,0 l/m 0 min 0 min 44 W/m 27,2 km/h (4 Bft)
11.07.2015 20:46 25,1 C 21,7 C 51 % 0 lf 1015,9 hPa 0,0 l/m 0 min 0 min 44 W/m 25,1 km/h (4 Bft)
11.07.2015 20:48 25,1 C 21,7 C 52 % 0 lf 1015,9 hPa 0,0 l/m 0 min 0 min 42 W/m 23,0 km/h (4 Bft)
11.07.2015 20:50 24,9 C 21,7 C 52 % 0 lf 1016,0 hPa 0,0 l/m 0 min 0 min 41 W/m 23,0 km/h (4 Bft)
11.07.2015 20:52 24,9 C 21,7 C 53 % 0 lf 1016,0 hPa 0,0 l/m 0 min 0 min 40 W/m 33,5 km/h (5 Bft)
11.07.2015 20:54 24,8 C 21,7 C 53 % 0 lf 1016,0 hPa 0,0 l/m 0 min 0 min 39 W/m 18,8 km/h (3 Bft)
11.07.2015 20:56 24,7 C 21,7 C 53 % 0 lf 1016,1 hPa 0,0 l/m 0 min 0 min 38 W/m 20,9 km/h (4 Bft)
11.07.2015 20:58 24,6 C 21,7 C 54 % 0 lf 1016,1 hPa 0,0 l/m 0 min 0 min 35 W/m 16,7 km/h (3 Bft)
11.07.2015 21:00 24,6 C 21,7 C 53 % 0 lf 1016,1 hPa 0,0 l/m 0 min 0 min 33 W/m 29,3 km/h (5 Bft)
11.07.2015 21:02 24,4 C 21,1 C 54 % 0 lf 1016,2 hPa 0,0 l/m 0 min 0 min 32 W/m 16,7 km/h (3 Bft)
11.07.2015 21:04 24,4 C 21,1 C 53 % 0 lf 1016,2 hPa 0,0 l/m 0 min 0 min 32 W/m 16,7 km/h (3 Bft)
11.07.2015 21:06 24,3 C 21,1 C 54 % 0 lf 1016,2 hPa 0,0 l/m 0 min 0 min 30 W/m 16,7 km/h (3 Bft)
11.07.2015 21:08 24,2 C 21,1 C 54 % 0 lf 1016,3 hPa 0,0 l/m 0 min 0 min 29 W/m 12,6 km/h (3 Bft)
11.07.2015 21:10 24,1 C 21,1 C 54 % 0 lf 1016,3 hPa 0,0 l/m 0 min 0 min 28 W/m 14,6 km/h (3 Bft)
11.07.2015 21:12 24,0 C 21,1 C 54 % 0 lf 1016,3 hPa 0,0 l/m 0 min 0 min 26 W/m 16,7 km/h (3 Bft)
11.07.2015 21:14 23,9 C 21,1 C 54 % 0 lf 1016,3 hPa 0,0 l/m 0 min 0 min 25 W/m 18,8 km/h (3 Bft)
11.07.2015 21:16 23,9 C 20,6 C 54 % 0 lf 1016,4 hPa 0,0 l/m 0 min 0 min 24 W/m 14,6 km/h (3 Bft)
11.07.2015 21:18 23,8 C 20,6 C 54 % 0 lf 1016,4 hPa 0,0 l/m 0 min 0 min 22 W/m 16,7 km/h (3 Bft)
11.07.2015 21:20 23,8 C 20,6 C 54 % 0 lf 1016,5 hPa 0,0 l/m 0 min 0 min 20 W/m 20,9 km/h (4 Bft)
11.07.2015 21:22 23,7 C 20,6 C 54 % 0 lf 1016,4 hPa 0,0 l/m 0 min 0 min 19 W/m 20,9 km/h (4 Bft)
11.07.2015 21:24 23,6 C 20,6 C 54 % 0 lf 1016,5 hPa 0,0 l/m 0 min 0 min 17 W/m 16,7 km/h (3 Bft)
11.07.2015 21:26 23,5 C 20,6 C 54 % 0 lf 1016,5 hPa 0,0 l/m 0 min 0 min 15 W/m 12,6 km/h (3 Bft)
11.07.2015 21:28 23,4 C 20,6 C 55 % 0 lf 1016,5 hPa 0,0 l/m 0 min 0 min 14 W/m 14,6 km/h (3 Bft)
11.07.2015 21:30 23,4 C 20,6 C 55 % 0 lf 1016,5 hPa 0,0 l/m 0 min 0 min 12 W/m 12,6 km/h (3 Bft)
11.07.2015 21:32 23,3 C 20,0 C 55 % 0 lf 1016,5 hPa 0,0 l/m 0 min 0 min 11 W/m 14,6 km/h (3 Bft)
11.07.2015 21:34 23,3 C 20,0 C 55 % 0 lf 1016,5 hPa 0,0 l/m 0 min 0 min 11 W/m 12,6 km/h (3 Bft)
11.07.2015 21:36 23,2 C 20,0 C 55 % 0 lf 1016,5 hPa 0,0 l/m 0 min 0 min 9 W/m 18,8 km/h (3 Bft)
11.07.2015 21:38 23,2 C 20,0 C 55 % 0 lf 1016,5 hPa 0,0 l/m 0 min 0 min 8 W/m 14,6 km/h (3 Bft)
11.07.2015 21:40 23,1 C 20,0 C 55 % 0 lf 1016,5 hPa 0,0 l/m 0 min 0 min 7 W/m 12,6 km/h (3 Bft)
11.07.2015 21:42 23,0 C 20,0 C 55 % 0 lf 1016,6 hPa 0,0 l/m 0 min 0 min 7 W/m 16,7 km/h (3 Bft)
11.07.2015 21:44 22,9 C 20,0 C 55 % 0 lf 1016,6 hPa 0,0 l/m 0 min 0 min 5 W/m 14,6 km/h (3 Bft)
11.07.2015 21:46 22,9 C 19,4 C 56 % 0 lf 1016,6 hPa 0,0 l/m 0 min 0 min 5 W/m 14,6 km/h (3 Bft)
11.07.2015 21:48 22,8 C 19,4 C 56 % 0 lf 1016,6 hPa 0,0 l/m 0 min 0 min 4 W/m 16,7 km/h (3 Bft)
11.07.2015 21:50 22,7 C 19,4 C 56 % 0 lf 1016,6 hPa 0,0 l/m 0 min 0 min 0 W/m 16,7 km/h (3 Bft)
11.07.2015 21:52 22,6 C 19,4 C 56 % 0 lf 1016,6 hPa 0,0 l/m 0 min 0 min 0 W/m 8,4 km/h (2 Bft)
11.07.2015 21:54 22,6 C 19,4 C 56 % 0 lf 1016,6 hPa 0,0 l/m 0 min 0 min 0 W/m 12,6 km/h (3 Bft)
11.07.2015 21:56 22,6 C 19,4 C 56 % 0 lf 1016,6 hPa 0,0 l/m 0 min 0 min 0 W/m 12,6 km/h (3 Bft)
11.07.2015 21:58 22,5 C 19,4 C 56 % 0 lf 1016,6 hPa 0,0 l/m 0 min 0 min 0 W/m 12,6 km/h (3 Bft)
11.07.2015 22:00 22,4 C 18,9 C 56 % 0 lf 1016,7 hPa 0,0 l/m 0 min 0 min 0 W/m 8,4 km/h (2 Bft)
11.07.2015 22:02 22,3 C 18,9 C 56 % 0 lf 1016,7 hPa 0,0 l/m 0 min 0 min 0 W/m 10,5 km/h (2 Bft)
11.07.2015 22:04 22,3 C 18,9 C 56 % 0 lf 1016,7 hPa 0,0 l/m 0 min 0 min 0 W/m 10,5 km/h (2 Bft)
11.07.2015 22:06 22,2 C 18,9 C 57 % 0 lf 1016,6 hPa 0,0 l/m 0 min 0 min 0 W/m 8,4 km/h (2 Bft)
11.07.2015 22:08 22,2 C 18,9 C 56 % 0 lf 1016,7 hPa 0,0 l/m 0 min 0 min 0 W/m 8,4 km/h (2 Bft)
11.07.2015 22:10 22,2 C 18,9 C 56 % 0 lf 1016,7 hPa 0,0 l/m 0 min 0 min 0 W/m 6,3 km/h (2 Bft)
11.07.2015 22:12 22,1 C 18,3 C 56 % 0 lf 1016,7 hPa 0,0 l/m 0 min 0 min 0 W/m 4,2 km/h (1 Bft)
11.07.2015 22:14 22,1 C 18,3 C 57 % 0 lf 1016,7 hPa 0,0 l/m 0 min 0 min 0 W/m 4,2 km/h (1 Bft)
11.07.2015 22:16 22,0 C 18,3 C 57 % 0 lf 1016,7 hPa 0,0 l/m 0 min 0 min 0 W/m 6,3 km/h (2 Bft)
11.07.2015 22:18 21,9 C 18,3 C 56 % 0 lf 1016,8 hPa 0,0 l/m 0 min 0 min 0 W/m 6,3 km/h (2 Bft)
11.07.2015 22:20 21,9 C 17,8 C 57 % 0 lf 1016,7 hPa 0,0 l/m 0 min 0 min 0 W/m 6,3 km/h (2 Bft)
11.07.2015 22:22 21,9 C 17,8 C 57 % 0 lf 1016,8 hPa 0,0 l/m 0 min 0 min 0 W/m 8,4 km/h (2 Bft)
11.07.2015 22:24 21,8 C 17,8 C 57 % 0 lf 1016,7 hPa 0,0 l/m 0 min 0 min 0 W/m 8,4 km/h (2 Bft)
11.07.2015 22:26 21,7 C 17,8 C 58 % 0 lf 1016,8 hPa 0,0 l/m 0 min 0 min 0 W/m 8,4 km/h (2 Bft)
11.07.2015 22:28 21,7 C 18,3 C 58 % 0 lf 1016,8 hPa 0,0 l/m 0 min 0 min 0 W/m 8,4 km/h (2 Bft)
11.07.2015 22:30 21,6 C 18,3 C 58 % 0 lf 1016,8 hPa 0,0 l/m 0 min 0 min 0 W/m 4,2 km/h (1 Bft)
11.07.2015 22:32 21,6 C 17,8 C 58 % 0 lf 1016,8 hPa 0,0 l/m 0 min 0 min 0 W/m 6,3 km/h (2 Bft)
11.07.2015 22:34 21,5 C 17,8 C 58 % 0 lf 1016,8 hPa 0,0 l/m 0 min 0 min 0 W/m 6,3 km/h (2 Bft)
11.07.2015 22:36 21,4 C 17,8 C 58 % 0 lf 1016,8 hPa 0,0 l/m 0 min 0 min 0 W/m 8,4 km/h (2 Bft)
11.07.2015 22:38 21,4 C 17,8 C 59 % 0 lf 1016,8 hPa 0,0 l/m 0 min 0 min 0 W/m 8,4 km/h (2 Bft)
11.07.2015 22:40 21,3 C 17,8 C 59 % 0 lf 1016,8 hPa 0,0 l/m 0 min 0 min 0 W/m 4,2 km/h (1 Bft)
11.07.2015 22:42 21,2 C 17,8 C 59 % 0 lf 1016,8 hPa 0,0 l/m 0 min 0 min 0 W/m 4,2 km/h (1 Bft)
11.07.2015 22:44 21,2 C 17,8 C 59 % 0 lf 1016,8 hPa 0,0 l/m 0 min 0 min 0 W/m 6,3 km/h (2 Bft)
11.07.2015 22:46 21,1 C 17,2 C 59 % 0 lf 1016,8 hPa 0,0 l/m 0 min 0 min 0 W/m 4,2 km/h (1 Bft)
11.07.2015 22:48 21,0 C 17,2 C 59 % 0 lf 1016,8 hPa 0,0 l/m 0 min 0 min 0 W/m 4,2 km/h (1 Bft)
11.07.2015 22:50 21,0 C 17,2 C 60 % 0 lf 1016,8 hPa 0,0 l/m 0 min 0 min 0 W/m 6,3 km/h (2 Bft)
11.07.2015 22:52 20,9 C 17,2 C 60 % 0 lf 1016,8 hPa 0,0 l/m 0 min 0 min 0 W/m 6,3 km/h (2 Bft)
11.07.2015 22:54 20,9 C 17,2 C 60 % 0 lf 1016,8 hPa 0,0 l/m 0 min 0 min 0 W/m 6,3 km/h (2 Bft)
11.07.2015 22:56 20,8 C 17,2 C 60 % 0 lf 1016,8 hPa 0,0 l/m 0 min 0 min 0 W/m 4,2 km/h (1 Bft)
11.07.2015 22:58 20,8 C 16,7 C 60 % 0 lf 1016,8 hPa 0,0 l/m 0 min 0 min 0 W/m 4,2 km/h (1 Bft)
11.07.2015 23:00 20,7 C 16,7 C 60 % 0 lf 1016,9 hPa 0,0 l/m 0 min 0 min 0 W/m 4,2 km/h (1 Bft)
11.07.2015 23:02 20,7 C 16,7 C 60 % 0 lf 1016,9 hPa 0,0 l/m 0 min 0 min 0 W/m 4,2 km/h (1 Bft)
11.07.2015 23:04 20,6 C 16,7 C 61 % 0 lf 1016,9 hPa 0,0 l/m 0 min 0 min 0 W/m 4,2 km/h (1 Bft)
11.07.2015 23:06 20,6 C 16,7 C 61 % 0 lf 1016,9 hPa 0,0 l/m 0 min 0 min 0 W/m 4,2 km/h (1 Bft)
11.07.2015 23:08 20,5 C 16,7 C 61 % 0 lf 1016,9 hPa 0,0 l/m 0 min 0 min 0 W/m 6,3 km/h (2 Bft)
11.07.2015 23:10 20,4 C 16,7 C 61 % 0 lf 1016,9 hPa 0,0 l/m 0 min 0 min 0 W/m 6,3 km/h (2 Bft)
11.07.2015 23:12 20,4 C 16,7 C 61 % 0 lf 1016,8 hPa 0,0 l/m 0 min 0 min 0 W/m 4,2 km/h (1 Bft)
11.07.2015 23:14 20,3 C 16,7 C 62 % 0 lf 1016,9 hPa 0,0 l/m 0 min 0 min 0 W/m 2,1 km/h (1 Bft)
11.07.2015 23:16 20,2 C 16,1 C 62 % 0 lf 1016,9 hPa 0,0 l/m 0 min 0 min 0 W/m 4,2 km/h (1 Bft)
11.07.2015 23:18 20,2 C 16,1 C 62 % 0 lf 1016,9 hPa 0,0 l/m 0 min 0 min 0 W/m 6,3 km/h (2 Bft)
11.07.2015 23:20 20,1 C 16,1 C 62 % 0 lf 1016,9 hPa 0,0 l/m 0 min 0 min 0 W/m 2,1 km/h (1 Bft)
11.07.2015 23:22 20,1 C 16,1 C 62 % 0 lf 1017,0 hPa 0,0 l/m 0 min 0 min 0 W/m 4,2 km/h (1 Bft)
11.07.2015 23:24 20,0 C 16,1 C 62 % 0 lf 1016,9 hPa 0,0 l/m 0 min 0 min 0 W/m 0,0 km/h (0 Bft)
11.07.2015 23:26 19,9 C 16,1 C 62 % 0 lf 1017,0 hPa 0,0 l/m 0 min 0 min 0 W/m 2,1 km/h (1 Bft)
11.07.2015 23:28 19,9 C 16,1 C 63 % 0 lf 1016,9 hPa 0,0 l/m 0 min 0 min 0 W/m 2,1 km/h (1 Bft)
11.07.2015 23:30 19,8 C 16,1 C 63 % 0 lf 1016,9 hPa 0,0 l/m 0 min 0 min 0 W/m 2,1 km/h (1 Bft)
11.07.2015 23:32 19,8 C 16,1 C 63 % 0 lf 1016,9 hPa 0,0 l/m 0 min 0 min 0 W/m 2,1 km/h (1 Bft)
11.07.2015 23:34 19,7 C 16,1 C 63 % 0 lf 1016,9 hPa 0,0 l/m 0 min 0 min 0 W/m 2,1 km/h (1 Bft)
11.07.2015 23:36 19,7 C 16,1 C 63 % 0 lf 1016,9 hPa 0,0 l/m 0 min 0 min 0 W/m 2,1 km/h (1 Bft)
11.07.2015 23:38 19,6 C 16,1 C 64 % 0 lf 1017,0 hPa 0,0 l/m 0 min 0 min 0 W/m 2,1 km/h (1 Bft)
11.07.2015 23:40 19,5 C 15,6 C 64 % 0 lf 1016,9 hPa 0,0 l/m 0 min 0 min 0 W/m 2,1 km/h (1 Bft)
11.07.2015 23:42 19,4 C 15,6 C 64 % 0 lf 1017,0 hPa 0,0 l/m 0 min 0 min 0 W/m 2,1 km/h (1 Bft)
11.07.2015 23:44 19,4 C 15,6 C 64 % 0 lf 1017,0 hPa 0,0 l/m 0 min 0 min 0 W/m 2,1 km/h (1 Bft)
11.07.2015 23:46 19,4 C 15,6 C 64 % 0 lf 1017,0 hPa 0,0 l/m 0 min 0 min 0 W/m 2,1 km/h (1 Bft)
11.07.2015 23:48 19,3 C 15,6 C 64 % 0 lf 1017,1 hPa 0,0 l/m 0 min 0 min 0 W/m 2,1 km/h (1 Bft)
11.07.2015 23:50 19,2 C 15,6 C 65 % 0 lf 1017,1 hPa 0,0 l/m 0 min 0 min 0 W/m 2,1 km/h (1 Bft)
11.07.2015 23:52 19,2 C 15,6 C 65 % 0 lf 1017,1 hPa 0,0 l/m 0 min 0 min 0 W/m 2,1 km/h (1 Bft)
11.07.2015 23:54 19,2 C 15,6 C 65 % 0 lf 1017,1 hPa 0,0 l/m 0 min 0 min 0 W/m 4,2 km/h (1 Bft)
11.07.2015 23:56 19,1 C 15,6 C 65 % 0 lf 1017,2 hPa 0,0 l/m 0 min 0 min 0 W/m 4,2 km/h (1 Bft)
11.07.2015 23:58 19,0 C 15,6 C 65 % 0 lf 1017,1 hPa 0,0 l/m 0 min 0 min 0 W/m 4,2 km/h (1 Bft)
_ Min-Zeit 03:56 02:42 15:30 00:00 13:10 - - - - 01:46
Minimum _ 14,1 C 11,7 C 33 % 0 lf 1013,8 hPa - - - - 0,0 km/h (0 Bft)
_ Max-Zeit 16:02 12:32 04:12 00:00 00:02 00:00 07:04 00:00 13:48 18:56
Maximum _ 31,8 C 31,7 C 81 % 0 lf 1018,0 hPa 0,0 l/m 2 min 0 min 942 W/m 37,7 km/h
W-NW (5 Bft)
Durchschnitt _ 22,3 C 20,6 C 57 % 0 lf 1015,2 hPa #0,0 l/m #12:30 h #0 min. 455 W/m 12,3 km/h (3 Bft)
© 2015 W. Hausmann